Want more features on Pastebin? Sign Up, it's FREE!
Guest

meh

By: a guest on Apr 25th, 2010  |  syntax: None  |  size: 67.04 KB  |  views: 223  |  expires: Never
download  |  raw  |  embed  |  report abuse  |  print
Text below is selected. Please press Ctrl+C to copy to your clipboard. (⌘+C on Mac)
  1. 21:24:58 T:2424 M:1128267776  NOTICE: -----------------------------------------------------------------------
  2. 21:24:58 T:2424 M:1128189952  NOTICE: Starting XBMC, Platform: Windows  build 7600. Built on Mar  1 2010 (SVN:28256, compiler 1500)
  3. 21:24:58 T:2424 M:1128173568  NOTICE: Intel(R) Atom(TM) CPU  330   @ 1.60GHz
  4. 21:24:58 T:2424 M:1128157184  NOTICE: Desktop Resolution: 1280x720 32Bit at 50Hz
  5. 21:24:58 T:2424 M:1128153088  NOTICE: Running with administrator rights
  6. 21:24:58 T:2424 M:1128148992  NOTICE: special://xbmc/ is mapped to: C:\Program Files\XBMC
  7. 21:24:58 T:2424 M:1128132608  NOTICE: special://masterprofile/ is mapped to: C:\Users\HTPC\AppData\Roaming\XBMC\userdata
  8. 21:24:58 T:2424 M:1128132608  NOTICE: special://home/ is mapped to: C:\Users\HTPC\AppData\Roaming\XBMC
  9. 21:24:58 T:2424 M:1128112128  NOTICE: special://temp/ is mapped to: C:\Users\HTPC\AppData\Roaming\XBMC\cache
  10. 21:24:58 T:2424 M:1128112128  NOTICE: The executable running is: C:\Program Files\XBMC\XBMC.exe
  11. 21:24:58 T:2424 M:1128108032  NOTICE: Log File is located: C:\Users\HTPC\AppData\Roaming\XBMC\xbmc.log
  12. 21:24:58 T:2424 M:1128108032  NOTICE: -----------------------------------------------------------------------
  13. 21:24:58 T:2424 M:1128079360  NOTICE: Setup SDL
  14. 21:24:58 T:2424 M:1125621760  NOTICE: Found mode: 640x480 @ 60.00 - Full Screen
  15. 21:24:58 T:2424 M:1125515264  NOTICE: Found mode: 640x480 @ 59.94 - Full Screen
  16. 21:24:58 T:2424 M:1125429248  NOTICE: Found mode: 720x480 @ 60.00 - Full Screen
  17. 21:24:58 T:2424 M:1125404672  NOTICE: Found mode: 720x480 @ 59.94 - Full Screen
  18. 21:24:58 T:2424 M:1125343232  NOTICE: Found mode: 720x576 @ 50.00 - Full Screen
  19. 21:24:58 T:2424 M:1125335040  NOTICE: Found mode: 800x600 @ 50.00 - Full Screen
  20. 21:24:58 T:2424 M:1125224448  NOTICE: Found mode: 800x600 @ 50.00 - Full Screen
  21. 21:24:58 T:2424 M:1125179392  NOTICE: Found mode: 800x600 @ 50.00 - Full Screen
  22. 21:24:58 T:2424 M:1125105664  NOTICE: Found mode: 800x600 @ 60.00 - Full Screen
  23. 21:24:58 T:2424 M:1125093376  NOTICE: Found mode: 800x600 @ 60.00 - Full Screen
  24. 21:24:58 T:2424 M:1125076992  NOTICE: Found mode: 800x600 @ 60.00 - Full Screen
  25. 21:24:58 T:2424 M:1125007360  NOTICE: Found mode: 800x600 @ 59.94 - Full Screen
  26. 21:24:58 T:2424 M:1124990976  NOTICE: Found mode: 800x600 @ 59.94 - Full Screen
  27. 21:24:58 T:2424 M:1124999168  NOTICE: Found mode: 800x600 @ 59.94 - Full Screen
  28. 21:24:58 T:2424 M:1124958208  NOTICE: Found mode: 1176x664 @ 50.00 - Full Screen
  29. 21:24:58 T:2424 M:1124937728  NOTICE: Found mode: 1176x664 @ 50.00 - Full Screen
  30. 21:24:58 T:2424 M:1124941824  NOTICE: Found mode: 1176x664 @ 50.00 - Full Screen
  31. 21:24:58 T:2424 M:1124941824  NOTICE: Found mode: 1176x664 @ 60.00 - Full Screen
  32. 21:24:58 T:2424 M:1124937728  NOTICE: Found mode: 1176x664 @ 60.00 - Full Screen
  33. 21:24:58 T:2424 M:1124937728  NOTICE: Found mode: 1176x664 @ 60.00 - Full Screen
  34. 21:24:58 T:2424 M:1124884480  NOTICE: Found mode: 1176x664 @ 59.94 - Full Screen
  35. 21:24:58 T:2424 M:1124851712  NOTICE: Found mode: 1176x664 @ 59.94 - Full Screen
  36. 21:24:58 T:2424 M:1124831232  NOTICE: Found mode: 1176x664 @ 59.94 - Full Screen
  37. 21:24:58 T:2424 M:1124843520  NOTICE: Found mode: 1280x720 @ 50.00 - Full Screen
  38. 21:24:58 T:2424 M:1124843520  NOTICE: Found mode: 1280x720 @ 60.00 - Full Screen
  39. 21:24:58 T:2424 M:1124843520  NOTICE: Found mode: 1280x720 @ 59.94 - Full Screen
  40. 21:24:58 T:2424 M:1124827136  NOTICE: Found mode: 1920x1080 @ 25.00 - Full Screen
  41. 21:24:58 T:2424 M:1124827136  NOTICE: Found mode: 1920x1080 @ 30.00 - Full Screen
  42. 21:24:58 T:2424 M:1124827136  NOTICE: Found mode: 1920x1080 @ 29.97 - Full Screen
  43. 21:24:58 T:2424 M:1124777984  NOTICE: load settings...
  44. 21:24:58 T:2424 M:1124569088   ERROR: Win32DllLoader::Load: Unable to load special://xbmc/system/players/dvdplayer/bcmDIL.dll (126)
  45. 21:24:58 T:2424 M:1124548608  NOTICE: special://profile/ is mapped to: special://masterprofile/
  46. 21:24:58 T:2424 M:1124544512  NOTICE: loading special://masterprofile/guisettings.xml
  47. 21:24:58 T:2424 M:1124483072  NOTICE: Getting hardware information now...
  48. 21:24:58 T:2424 M:1124483072  NOTICE: Checking resolution 12
  49. 21:24:58 T:2424 M:1124470784  NOTICE: Loading player core factory settings from special://xbmc/system/playercorefactory.xml.
  50. 21:24:58 T:2424 M:1124458496  NOTICE: Loaded playercorefactory configuration
  51. 21:24:58 T:2424 M:1124458496  NOTICE: Loading player core factory settings from special://masterprofile/playercorefactory.xml.
  52. 21:24:58 T:2424 M:1124458496  NOTICE: special://masterprofile/playercorefactory.xml does not exist. Skipping.
  53. 21:24:58 T:2424 M:1124454400  NOTICE: No advancedsettings.xml to load (special://masterprofile/advancedsettings.xml)
  54. 21:24:58 T:2424 M:1124454400  NOTICE: Default DVD Player: dvdplayer
  55. 21:24:58 T:2424 M:1124454400  NOTICE: Default Video Player: dvdplayer
  56. 21:24:58 T:2424 M:1124454400  NOTICE: Default Audio Player: paplayer
  57. 21:24:58 T:2424 M:1124454400  NOTICE: Enabled debug logging due to GUI setting (2)
  58. 21:24:58 T:2424 M:1124450304  NOTICE: Loading media sources from special://masterprofile/sources.xml
  59. 21:24:58 T:2424 M:1124446208   DEBUG:     Setting <default> source to : Video plugins
  60. 21:24:58 T:3372 M:1124368384   DEBUG: thread start, auto delete: 0
  61. 21:24:58 T:2424 M:1124319232   DEBUG: CWinSystemWin32::ResizeInternal - resizing due to size change (0,0,1280,720 fullscreen)->(0,0,1280,720 fullscreen)
  62. 21:24:58 T:2424 M:1124315136   DEBUG: CWinEventsWin32::WndProcWindow is active
  63. 21:24:59 T:2424 M:1125859328   DEBUG: CWinEventsWin32::WndProcWindow gained focus
  64. 21:24:59 T:2424 M:1125326848   DEBUG: CRenderSystemDX::CreateDevice on adapter 0
  65. 21:24:59 T:2424 M:1119358976   DEBUG: CWinSystemWin32::SetFullScreen(fullscreen) on screen 0 with size 1280x720, refresh 50.000000
  66. 21:24:59 T:2424 M:1116618752    INFO: load language info file: special://xbmc/language/English/langinfo.xml
  67. 21:24:59 T:2424 M:1116606464    INFO: load default splash image: C:\Program Files\XBMC\media\Splash.png
  68. 21:24:59 T:2424 M:1116495872   DEBUG: Win32DllLoader::Load(special://xbmc/system/ImageLib.dll)
  69. 21:24:59 T:2424 M:1114009600    INFO: load language file:special://xbmc/language/English/strings.xml
  70. 21:24:59 T:2424 M:1112666112    INFO: load keymapping
  71. 21:24:59 T:2424 M:1112592384    INFO: Loading special://xbmc/system/keymaps/gamepad.xml
  72. 21:24:59 T:2424 M:1112760320    INFO: Loading special://xbmc/system/keymaps/joystick.AppleRemote.xml
  73. 21:24:59 T:2424 M:1112735744    INFO: Loading special://xbmc/system/keymaps/joystick.Harmony.xml
  74. 21:24:59 T:2424 M:1112711168    INFO: Loading special://xbmc/system/keymaps/joystick.Logitech.RumblePad.2.xml
  75. 21:24:59 T:2424 M:1112666112    INFO: Loading special://xbmc/system/keymaps/joystick.Microsoft.Xbox.Controller.S.xml
  76. 21:24:59 T:2424 M:1112592384    INFO: Loading special://xbmc/system/keymaps/joystick.WiiRemote.xml
  77. 21:24:59 T:2424 M:1112567808    INFO: Loading special://xbmc/system/keymaps/keyboard.xml
  78. 21:24:59 T:2424 M:1112547328    INFO: Loading special://xbmc/system/keymaps/remote.xml
  79. 21:24:59 T:2424 M:1112510464    INFO: Loading special://xbmc/system/IRSSmap.xml
  80. 21:24:59 T:2424 M:1112506368   DEBUG: CButtonTranslator::Load - no userdata IRSSmap.xml found, skipping
  81. 21:24:59 T:2424 M:1112506368    INFO: Checking skin version of: Confluence
  82. 21:24:59 T:2424 M:1112498176    INFO: Skin version is: 2.11 (2.110000)
  83. 21:24:59 T:2424 M:1112498176    INFO: GUI format 1280x720 1280x720 @ 50.00 - Full Screen
  84. 21:24:59 T:2424 M:1112489984    INFO: creating subdirectories
  85. 21:24:59 T:2424 M:1112489984    INFO: userdata folder: special://masterprofile/
  86. 21:24:59 T:2424 M:1112489984    INFO: recording folder:
  87. 21:24:59 T:2424 M:1112485888    INFO: screenshots folder:D:\[Nerladdat]\Program\XMBC\
  88. 21:24:59 T:2424 M:1112485888    INFO: thumbnails folder: special://masterprofile/Thumbnails
  89. 21:24:59 T:2424 M:1112485888  NOTICE: initializing playlistplayer
  90. 21:24:59 T:2424 M:1112485888  NOTICE: DONE initializing playlistplayer
  91. 21:24:59 T:2424 M:1112481792   DEBUG: DPMS: supported power-saving modes: OFF STANDBY
  92. 21:24:59 T:2424 M:1112473600  NOTICE: load default skin:[Confluence]
  93. 21:24:59 T:2424 M:1112469504    INFO:   load skin from:special://xbmc/skin/Confluence
  94. 21:24:59 T:2424 M:1112469504    INFO:   delete old skin...
  95. 21:24:59 T:2424 M:1112444928   DEBUG: ------ Window Deinit (Pointer.xml) ------
  96. 21:24:59 T:2424 M:1112436736   DEBUG: ------ Window Deinit (DialogMuteBug.xml) ------
  97. 21:24:59 T:2424 M:1112424448    INFO: Default 4:3 resolution directory is special://xbmc/skin/Confluence/720p
  98. 21:24:59 T:2424 M:1112424448    INFO: Default 16:9 resolution directory is special://xbmc/skin/Confluence/720p
  99. 21:24:59 T:2424 M:1112424448    INFO: Skin version is: 2.11
  100. 21:24:59 T:2424 M:1112420352    INFO: Loading skin includes from C:\Program Files\XBMC\skin\Confluence\720p\includes.xml
  101. 21:24:59 T:2424 M:1110618112    INFO:   load fonts for skin...
  102. 21:24:59 T:2424 M:1110601728    INFO: Loading fonts from special://xbmc/skin/Confluence/720p/Font.xml
  103. 21:25:00 T:2424 M:1107070976    INFO:   load new skin...
  104. 21:25:00 T:2424 M:1107070976    INFO: Skin version is: 2.11 (2.110000)
  105. 21:25:00 T:2424 M:1107070976    INFO: Loading skin file: Home.xml
  106. 21:25:00 T:2424 M:1106677760   DEBUG: CDatabase: Connecting to database MyVideos34.db at C:\Users\HTPC\AppData\Roaming\XBMC\userdata\Database:
  107. 21:25:00 T:2424 M:1106108416   DEBUG: CDatabase: Connecting to database MyVideos34.db at C:\Users\HTPC\AppData\Roaming\XBMC\userdata\Database:
  108. 21:25:00 T:2424 M:1105698816   DEBUG: Load Home.xml: 106.23ms
  109. 21:25:00 T:2424 M:1105670144    INFO: Loading user windows, path special://xbmc/skin/Confluence/720p
  110. 21:25:00 T:2424 M:1105670144    INFO: Loading skin file: special://xbmc/skin/Confluence/720p/custom_DiscDialog_1113.xml
  111. 21:25:00 T:2424 M:1105653760    INFO: Loading skin file: special://xbmc/skin/Confluence/720p/custom_SkinSetting_1111.xml
  112. 21:25:00 T:2424 M:1105022976    INFO: Loading user windows, path special://xbmc/skin/Confluence/720p
  113. 21:25:00 T:2424 M:1105022976    INFO: Loading skin file: special://xbmc/skin/Confluence/720p/custom_DiscDialog_1113.xml
  114. 21:25:00 T:2424 M:1105022976    INFO: Loading skin file: special://xbmc/skin/Confluence/720p/custom_SkinSetting_1111.xml
  115. 21:25:00 T:2424 M:1105022976    INFO: Loading user windows, path special://xbmc/skin/Confluence/720p
  116. 21:25:00 T:2424 M:1105022976    INFO: Loading skin file: special://xbmc/skin/Confluence/720p/custom_DiscDialog_1113.xml
  117. 21:25:00 T:2424 M:1105022976    INFO: Loading skin file: special://xbmc/skin/Confluence/720p/custom_SkinSetting_1111.xml
  118. 21:25:00 T:2424 M:1105022976   DEBUG: Load Skin XML: 167.62ms
  119. 21:25:00 T:2424 M:1105022976    INFO:   initialize new skin...
  120. 21:25:00 T:2424 M:1105022976    INFO: Loading skin file: Pointer.xml
  121. 21:25:00 T:2424 M:1105018880   DEBUG: Load Pointer.xml: 2.86ms
  122. 21:25:00 T:2424 M:1104699392   DEBUG: Alloc resources: 16.90ms (3.00 ms skin load)
  123. 21:25:00 T:2424 M:1104699392    INFO: Loading skin file: DialogVolumeBar.xml
  124. 21:25:00 T:2424 M:1104687104   DEBUG: Load DialogVolumeBar.xml: 4.88ms
  125. 21:25:00 T:2424 M:1104678912   DEBUG: Alloc resources: 5.60ms (5.03 ms skin load)
  126. 21:25:00 T:2424 M:1104674816    INFO: Loading skin file: DialogSeekBar.xml
  127. 21:25:00 T:2424 M:1104658432   DEBUG: Load DialogSeekBar.xml: 13.20ms
  128. 21:25:00 T:2424 M:1104650240   DEBUG: Alloc resources: 13.89ms (13.36 ms skin load)
  129. 21:25:00 T:2424 M:1104650240    INFO: Loading skin file: DialogKaiToast.xml
  130. 21:25:00 T:2424 M:1104637952   DEBUG: Load DialogKaiToast.xml: 3.42ms
  131. 21:25:00 T:2424 M:1104637952   DEBUG: Alloc resources: 3.57ms (3.57 ms skin load)
  132. 21:25:00 T:2424 M:1104637952    INFO: Loading skin file: DialogMuteBug.xml
  133. 21:25:00 T:2424 M:1104633856   DEBUG: Load DialogMuteBug.xml: 2.85ms
  134. 21:25:00 T:2424 M:1104633856   DEBUG: Alloc resources: 3.00ms (2.99 ms skin load)
  135. 21:25:00 T:2424 M:1104633856    INFO:   skin loaded...
  136. 21:25:00 T:2424 M:1104605184   DEBUG: CDatabase: Connecting to database ViewModes at C:\Users\HTPC\AppData\Roaming\XBMC\userdata\Database:
  137. 21:25:00 T:2424 M:1104551936   DEBUG: CDatabase: Connecting to database ViewModes at C:\Users\HTPC\AppData\Roaming\XBMC\userdata\Database:
  138. 21:25:00 T:2424 M:1104474112   DEBUG: CDatabase: Connecting to database ViewModes at C:\Users\HTPC\AppData\Roaming\XBMC\userdata\Database:
  139. 21:25:00 T:2424 M:1104384000   DEBUG: CDatabase: Connecting to database ViewModes at C:\Users\HTPC\AppData\Roaming\XBMC\userdata\Database:
  140. 21:25:00 T:2424 M:1104351232   DEBUG: CDatabase: Connecting to database ViewModes at C:\Users\HTPC\AppData\Roaming\XBMC\userdata\Database:
  141. 21:25:00 T:2424 M:1104302080   DEBUG: CDatabase: Connecting to database ViewModes at C:\Users\HTPC\AppData\Roaming\XBMC\userdata\Database:
  142. 21:25:00 T:2424 M:1104199680   DEBUG: Win32DllLoader::Load(special://xbmc/system/libcurl.dll)
  143. 21:25:00 T:2424 M:1103937536   DEBUG: LoadLibraryA('libidn-11.dll')
  144. 21:25:00 T:2424 M:1103933440   DEBUG: Win32DllLoader::Load(special://xbmc/system/libidn-11.dll)
  145. 21:25:00 T:2424 M:1103933440   DEBUG: LoadLibrary('libidn-11.dll') returning: 05C5C868
  146. 21:25:00 T:2424 M:1103933440   DEBUG: LoadLibraryA('libeay32.dll')
  147. 21:25:00 T:2424 M:1103933440   DEBUG: Win32DllLoader::Load(special://xbmc/system/libeay32.dll)
  148. 21:25:00 T:2424 M:1103933440   DEBUG: LoadLibrary('libeay32.dll') returning: 05C5C818
  149. 21:25:00 T:2424 M:1103933440   DEBUG: LoadLibraryA('libssl32.dll')
  150. 21:25:00 T:2424 M:1103933440   DEBUG: Win32DllLoader::Load(special://xbmc/system/libssl32.dll)
  151. 21:25:00 T:2424 M:1103933440   DEBUG: LoadLibraryA('libeay32.dll')
  152. 21:25:00 T:2424 M:1103933440   DEBUG: LoadLibrary('libeay32.dll') returning: 05C5C818
  153. 21:25:00 T:2424 M:1103933440   DEBUG: LoadLibrary('libssl32.dll') returning: 05C5C7C8
  154. 21:25:00 T:2424 M:1103564800   DEBUG: LoadLibraryA('ADVAPI32.DLL')
  155. 21:25:00 T:2424 M:1103564800   DEBUG: Win32DllLoader::Load(ADVAPI32.DLL)
  156. 21:25:00 T:2424 M:1103564800   DEBUG: LoadLibrary('ADVAPI32.DLL') returning: 05C5C778
  157. 21:25:00 T:2424 M:1103564800   DEBUG: LoadLibraryA('KERNEL32.DLL')
  158. 21:25:00 T:2424 M:1103564800   DEBUG: Win32DllLoader::Load(KERNEL32.DLL)
  159. 21:25:00 T:2424 M:1103564800   DEBUG: LoadLibrary('KERNEL32.DLL') returning: 05C5C728
  160. 21:25:00 T:2424 M:1103564800   DEBUG: LoadLibraryA('NETAPI32.DLL')
  161. 21:25:00 T:2424 M:1103564800   DEBUG: Win32DllLoader::Load(NETAPI32.DLL)
  162. 21:25:00 T:2424 M:1103536128   DEBUG: LoadLibrary('NETAPI32.DLL') returning: 05C5C6D8
  163. 21:25:00 T:2424 M:1103478784   DEBUG: FreeLibrary(NETAPI32.DLL) -> 05C5C6D8
  164. 21:25:00 T:2424 M:1103478784   DEBUG: Win32DllLoader::Unload NETAPI32.DLL
  165. 21:25:00 T:2424 M:1103503360   DEBUG: FreeLibrary(ADVAPI32.DLL) -> 05C5C778
  166. 21:25:00 T:2424 M:1103503360   DEBUG: Win32DllLoader::Unload ADVAPI32.DLL
  167. 21:25:00 T:2424 M:1103503360   DEBUG: LoadLibraryA('USER32.DLL')
  168. 21:25:00 T:2424 M:1103503360   DEBUG: Win32DllLoader::Load(USER32.DLL)
  169. 21:25:00 T:2424 M:1103503360   DEBUG: LoadLibrary('USER32.DLL') returning: 05C5C778
  170. 21:25:00 T:2424 M:1103503360   DEBUG: FreeLibrary(USER32.DLL) -> 05C5C778
  171. 21:25:00 T:2424 M:1103503360   DEBUG: Win32DllLoader::Unload USER32.DLL
  172. 21:25:01 T:2424 M:1107087360   DEBUG: FreeLibrary(KERNEL32.DLL) -> 05C5C728
  173. 21:25:01 T:2424 M:1107206144   DEBUG: Win32DllLoader::Unload KERNEL32.DLL
  174. 21:25:01 T:2424 M:1107202048   DEBUG: LoadLibraryA('secur32.dll')
  175. 21:25:01 T:2424 M:1107202048   DEBUG: Win32DllLoader::Load(secur32.dll)
  176. 21:25:01 T:2424 M:1107202048   DEBUG: LoadLibrary('secur32.dll') returning: 05C5C728
  177. 21:25:01 T:2424 M:1107116032   DEBUG: CDatabase: Connecting to database ViewModes at C:\Users\HTPC\AppData\Roaming\XBMC\userdata\Database:
  178. 21:25:01 T:2424 M:1107095552   DEBUG: CDatabase: Connecting to database ViewModes at C:\Users\HTPC\AppData\Roaming\XBMC\userdata\Database:
  179. 21:25:01 T:2424 M:1107083264   DEBUG: CDatabase: Connecting to database ViewModes at C:\Users\HTPC\AppData\Roaming\XBMC\userdata\Database:
  180. 21:25:01 T:2424 M:1107083264   DEBUG: CDatabase: Connecting to database ViewModes at C:\Users\HTPC\AppData\Roaming\XBMC\userdata\Database:
  181. 21:25:01 T:2424 M:1107034112   DEBUG: Activating window ID: 12999
  182. 21:25:01 T:2424 M:1107030016   DEBUG: Checking if window ID 12999 is locked.
  183. 21:25:01 T:2424 M:1107025920   DEBUG: ------ Window Init (Startup.xml) ------
  184. 21:25:01 T:2424 M:1107025920    INFO: Loading skin file: Startup.xml
  185. 21:25:01 T:2424 M:1107017728   DEBUG: Load Startup.xml: 6.32ms
  186. 21:25:01 T:2424 M:1107017728   DEBUG: Alloc resources: 6.48ms (6.47 ms skin load)
  187. 21:25:01 T:2424 M:1107013632    INFO: removing tempfiles
  188. 21:25:01 T:2424 M:1107009536  NOTICE: CApplication::UpdateLibraries - Starting video library startup scan
  189. 21:25:01 T:2424 M:1107001344   DEBUG: CDatabase: Connecting to database MyVideos34.db at C:\Users\HTPC\AppData\Roaming\XBMC\userdata\Database:
  190. 21:25:01 T:2424 M:1106784256  NOTICE: initialize done
  191. 21:25:01 T:2424 M:1106784256  NOTICE: Running the application...
  192. 21:25:01 T:2424 M:1106784256   DEBUG: CApplication::ExecuteXBMCAction : Translating SetFocus(10)
  193. 21:25:01 T:3532 M:1106784256   DEBUG: thread start, auto delete: 0
  194. 21:25:01 T:2424 M:1106784256   DEBUG: CApplication::ExecuteXBMCAction : To SetFocus(10)
  195. 21:25:01 T:3532 M:1106784256   DEBUG: CDatabase: Connecting to database MyVideos34.db at C:\Users\HTPC\AppData\Roaming\XBMC\userdata\Database:
  196. 21:25:01 T:2424 M:1106776064   DEBUG: XBPython::Process - no user autoexec.py (C:\Users\HTPC\AppData\Roaming\XBMC\scripts\autoexec.py) found, skipping
  197. 21:25:01 T:2424 M:1106776064   DEBUG: XBPython::Process - no system autoexec.py (C:\Program Files\XBMC\scripts\autoexec.py) found, skipping
  198. 21:25:01 T:2424 M:1106771968   DEBUG: CNetwork::NetworkMessage - Starting network services
  199. 21:25:01 T:2424 M:1106759680  NOTICE: ES: Starting event server
  200. 21:25:01 T:2424 M:1106735104   DEBUG: CLastfmScrobbler: Clearing session.
  201. 21:25:01 T:2424 M:1106731008   DEBUG: CLibrefmScrobbler: Clearing session.
  202. 21:25:01 T:3532 M:1107038208   DEBUG: VIDEO::CVideoInfoScanner::Process - Starting scan
  203. 21:25:01 T:3496 M:1107038208   DEBUG: thread start, auto delete: 0
  204. 21:25:01 T:3496 M:1107038208   DEBUG: Thread 3496 terminating
  205. 21:25:01 T:3532 M:1106833408   DEBUG: Hash[,smb://SERVER-PC/Movie Archive 1/]:DB=[],Computed=[]
  206. 21:25:01 T:3532 M:1106821120   DEBUG: VIDEO::CVideoInfoScanner::DoScan - Finished dir: smb://SERVER-PC/Movie Archive 1/
  207. 21:25:01 T:3504 M:1106771968   DEBUG: thread start, auto delete: 0
  208. 21:25:01 T:3504 M:1106759680  NOTICE: ES: Starting UDP Event server on 127.0.0.1:9777
  209. 21:25:01 T:3504 M:1106759680  NOTICE: UDP: Listening on port 9777
  210. 21:25:01 T:3480 M:1106747392   DEBUG: thread start, auto delete: 0
  211. 21:25:01 T:3480 M:1106731008    INFO: JSONRPC Server: Successfully initialized
  212. 21:25:01 T:3512 M:1106702336   DEBUG: thread start, auto delete: 1
  213. 21:25:01 T:2424 M:1107472384   DEBUG: CApplication::ExecuteXBMCAction : Translating ReplaceWindow(Home)
  214. 21:25:01 T:2424 M:1106669568   DEBUG: CApplication::ExecuteXBMCAction : To ReplaceWindow(Home)
  215. 21:25:01 T:2424 M:1106534400   DEBUG: Activating window ID: 10000
  216. 21:25:01 T:2424 M:1106534400   DEBUG: Checking if window ID 10000 is locked.
  217. 21:25:01 T:2424 M:1106534400   DEBUG: ------ Window Deinit (Startup.xml) ------
  218. 21:25:01 T:2424 M:1105416192   DEBUG: ------ Window Init (Home.xml) ------
  219. 21:25:01 T:2424 M:1105367040   DEBUG: Alloc resources: 4.64ms (0.01 ms skin load)
  220. 21:25:01 T:2424 M:1105428480   DEBUG: CDatabase: Connecting to database MyVideos34.db at C:\Users\HTPC\AppData\Roaming\XBMC\userdata\Database:
  221. 21:25:01 T:3512 M:1105428480    INFO: WEATHER: Downloading weather
  222. 21:25:01 T:3512 M:1105416192   DEBUG: FileCurl::Open(06EEFCC8) http://xoap.weather.com/weather/local/USNY0996?cc=*&unit=m&dayf=4&prod=xoap&link=xoap&par=1004124588&key=079f24145f208494
  223. 21:25:01 T:3512 M:1105330176    INFO: XCURL::DllLibCurlGlobal::easy_aquire - Created session to http://xoap.weather.com
  224. 21:25:01 T:2424 M:1105350656   DEBUG: CDatabase: Connecting to database MyMusic7 at C:\Users\HTPC\AppData\Roaming\XBMC\userdata\Database:
  225. 21:25:01 T:3492 M:1105367040   DEBUG: thread start, auto delete: 1
  226. 21:25:01 T:2424 M:1100333056   DEBUG: CApplication::ExecuteXBMCAction : Translating XBMC.RunScript(special://skin/scripts/RecentlyAdded.py,limit=4)
  227. 21:25:01 T:2424 M:1100333056   DEBUG: CApplication::ExecuteXBMCAction : To XBMC.RunScript(special://skin/scripts/RecentlyAdded.py,limit=4)
  228. 21:25:01 T:2424 M:1100324864    INFO: initializing python engine.
  229. 21:25:01 T:2424 M:1100320768   DEBUG: Win32DllLoader::Load(special://xbmc/system/python/python24.dll)
  230. 21:25:02 T:3532 M:1097601024   DEBUG: VIDEO::CVideoInfoScanner::DoScan Scanning dir 'smb://SERVER-PC/Movie Archive 1/Batman.1989.BluRay.1080p.DTS.x264.dxva-EuReKA/' as not in the database
  231. 21:25:02 T:3532 M:1097588736   DEBUG: Hash[movies,smb://SERVER-PC/Movie Archive 1/Batman.1989.BluRay.1080p.DTS.x264.dxva-EuReKA/]:DB=[],Computed=[8FEE6758E6D27394758A7E0CB6A37EEB]
  232. 21:25:02 T:3532 M:1097175040   DEBUG: Not adding item to library as no info was found :(
  233. 21:25:02 T:3532 M:1097175040   DEBUG: VIDEO::CVideoInfoScanner::DoScan - Finished dir: smb://SERVER-PC/Movie Archive 1/Batman.1989.BluRay.1080p.DTS.x264.dxva-EuReKA/
  234. 21:25:02 T:3532 M:1096306688   DEBUG: VIDEO::CVideoInfoScanner::DoScan Skipping dir 'smb://SERVER-PC/Movie Archive 1/Batman.1989.BluRay.1080p.DTS.x264.dxva-EuReKA/3. Movie/' due to no change
  235. 21:25:02 T:3532 M:1096294400   DEBUG: Hash[movies,smb://SERVER-PC/Movie Archive 1/Batman.1989.BluRay.1080p.DTS.x264.dxva-EuReKA/3. Movie/]:DB=[A12D2246E787DD0D1716417A0EE6C10A],Computed=[A12D2246E787DD0D1716417A0EE6C10A]
  236. 21:25:02 T:3532 M:1096282112   DEBUG: VIDEO::CVideoInfoScanner::DoScan - Finished dir: smb://SERVER-PC/Movie Archive 1/Batman.1989.BluRay.1080p.DTS.x264.dxva-EuReKA/3. Movie/
  237. 21:25:02 T:3532 M:1095774208   DEBUG: VIDEO::CVideoInfoScanner::DoScan Skipping dir 'smb://SERVER-PC/Movie Archive 1/Batman.Begins.2005.BluRay.1080p.DTS.x264.dxva-HDME/' due to no change
  238. 21:25:02 T:3532 M:1095774208   DEBUG: Hash[movies,smb://SERVER-PC/Movie Archive 1/Batman.Begins.2005.BluRay.1080p.DTS.x264.dxva-HDME/]:DB=[1306AA5114506D9D1636FC940DDC6E12],Computed=[1306AA5114506D9D1636FC940DDC6E12]
  239. 21:25:02 T:3532 M:1095774208   DEBUG: VIDEO::CVideoInfoScanner::DoScan - Finished dir: smb://SERVER-PC/Movie Archive 1/Batman.Begins.2005.BluRay.1080p.DTS.x264.dxva-HDME/
  240. 21:25:02 T:3532 M:1094193152   DEBUG: Hash[,smb://SERVER-PC/Movie Archive 1/Blade.Runner.Final.Cut.2008.BluRay.1080p.DTS.x264.dxva-EuReKa/Movie/]:DB=[],Computed=[]
  241. 21:25:02 T:3532 M:1094193152   DEBUG: VIDEO::CVideoInfoScanner::DoScan - Finished dir: smb://SERVER-PC/Movie Archive 1/Blade.Runner.Final.Cut.2008.BluRay.1080p.DTS.x264.dxva-EuReKa/Movie/
  242. 21:25:02 T:3492 M:1094410240   DEBUG: CImageLoader::DoWork - took 278 ms to load special://skin/backgrounds/programs.jpg
  243. 21:25:02 T:3532 M:1094541312   DEBUG: VIDEO::CVideoInfoScanner::DoScan Scanning dir 'smb://SERVER-PC/Movie Archive 1/Coraline.1080p.BluRay.x264-REFiNED/' as not in the database
  244. 21:25:02 T:3532 M:1094541312   DEBUG: Hash[movies,smb://SERVER-PC/Movie Archive 1/Coraline.1080p.BluRay.x264-REFiNED/]:DB=[],Computed=[B9FA1873C0DD088F4DB06CE71CE2DDA5]
  245. 21:25:02 T:3532 M:1094520832   DEBUG: CVideoDatabase::GetMovieId (smb://SERVER-PC/Movie Archive 1/Coraline.1080p.BluRay.x264-REFiNED/refined-coraline-blu1080p.mkv), query = select idMovie from movie where idFile=172
  246. 21:25:02 T:3532 M:1094520832   DEBUG: Not adding item to library as no info was found :(
  247. 21:25:02 T:3532 M:1094520832   DEBUG: VIDEO::CVideoInfoScanner::DoScan - Finished dir: smb://SERVER-PC/Movie Archive 1/Coraline.1080p.BluRay.x264-REFiNED/
  248. 21:25:02 T:3532 M:1094520832   DEBUG: VIDEO::CVideoInfoScanner::DoScan Skipping dir 'smb://SERVER-PC/Movie Archive 1/Cube.1997.1080p.BluRay.X264-AMIABLE/' due to no change
  249. 21:25:02 T:3532 M:1094520832   DEBUG: Hash[movies,smb://SERVER-PC/Movie Archive 1/Cube.1997.1080p.BluRay.X264-AMIABLE/]:DB=[2ADF4C1DD62B8CE4DC6872607D51B838],Computed=[2ADF4C1DD62B8CE4DC6872607D51B838]
  250. 21:25:02 T:3532 M:1094520832   DEBUG: VIDEO::CVideoInfoScanner::DoScan - Finished dir: smb://SERVER-PC/Movie Archive 1/Cube.1997.1080p.BluRay.X264-AMIABLE/
  251. 21:25:02 T:3532 M:1094516736   DEBUG: Hash[,smb://SERVER-PC/Movie Archive 1/Dances.With.Wolves.1990.BluRay.1080p.DTS.x264.dxva-EuReKA/3. Movie/]:DB=[],Computed=[]
  252. 21:25:02 T:3532 M:1094516736   DEBUG: VIDEO::CVideoInfoScanner::DoScan - Finished dir: smb://SERVER-PC/Movie Archive 1/Dances.With.Wolves.1990.BluRay.1080p.DTS.x264.dxva-EuReKA/3. Movie/
  253. 21:25:02 T:3532 M:1094516736   DEBUG: Hash[,smb://SERVER-PC/Movie Archive 1/Das Boot - The Original Uncut Version (1981)/]:DB=[],Computed=[]
  254. 21:25:02 T:3532 M:1094516736   DEBUG: VIDEO::CVideoInfoScanner::DoScan - Finished dir: smb://SERVER-PC/Movie Archive 1/Das Boot - The Original Uncut Version (1981)/
  255. 21:25:02 T:3532 M:1094516736   DEBUG: VIDEO::CVideoInfoScanner::DoScan Skipping dir 'smb://SERVER-PC/Movie Archive 1/District.9.2009.Bluray.1080p.DTS.X264.dxva-FraMeSToR/' due to no change
  256. 21:25:02 T:3532 M:1094516736   DEBUG: Hash[movies,smb://SERVER-PC/Movie Archive 1/District.9.2009.Bluray.1080p.DTS.X264.dxva-FraMeSToR/]:DB=[D594D4CD7198C62F57705D94DDE78460],Computed=[D594D4CD7198C62F57705D94DDE78460]
  257. 21:25:02 T:3532 M:1094516736   DEBUG: VIDEO::CVideoInfoScanner::DoScan - Finished dir: smb://SERVER-PC/Movie Archive 1/District.9.2009.Bluray.1080p.DTS.X264.dxva-FraMeSToR/
  258. 21:25:02 T:3532 M:1094516736   DEBUG: Hash[,smb://SERVER-PC/Movie Archive 1/Fight.Club.1999.Bluray.1080p.DTSMA5.1.x264.dxva-FraMeSToR/]:DB=[],Computed=[]
  259. 21:25:02 T:3532 M:1094516736   DEBUG: VIDEO::CVideoInfoScanner::DoScan - Finished dir: smb://SERVER-PC/Movie Archive 1/Fight.Club.1999.Bluray.1080p.DTSMA5.1.x264.dxva-FraMeSToR/
  260. 21:25:02 T:3532 M:1094516736   DEBUG: Hash[,smb://SERVER-PC/Movie Archive 1/Gangs of New York Remastered 2002 Blu-ray 1080p AVC DTS-HD MA-HDS/BDMV/STREAM/]:DB=[],Computed=[]
  261. 21:25:02 T:3532 M:1094516736   DEBUG: VIDEO::CVideoInfoScanner::DoScan - Finished dir: smb://SERVER-PC/Movie Archive 1/Gangs of New York Remastered 2002 Blu-ray 1080p AVC DTS-HD MA-HDS/BDMV/STREAM/
  262. 21:25:02 T:3532 M:1094516736   DEBUG: Hash[,smb://SERVER-PC/Movie Archive 1/Hero.2002.Bluray.1080p.DTS.x264-EOS/]:DB=[],Computed=[]
  263. 21:25:02 T:3532 M:1094516736   DEBUG: VIDEO::CVideoInfoScanner::DoScan - Finished dir: smb://SERVER-PC/Movie Archive 1/Hero.2002.Bluray.1080p.DTS.x264-EOS/
  264. 21:25:02 T:3512 M:1094504448   DEBUG: FileCurl::Close(06EEFCC8) http://xoap.weather.com/weather/local/USNY0996?cc=*&unit=m&dayf=4&prod=xoap&link=xoap&par=1004124588&key=079f24145f208494
  265. 21:25:02 T:3512 M:1094504448    INFO: WEATHER: Weather download successful
  266. 21:25:02 T:3512 M:1094500352   DEBUG: CZipManager::GetZipList - Processing zip://special%3a%2f%2fxbmc%2fmedia%2fweather%2ezip/
  267. 21:25:02 T:3532 M:1094397952   DEBUG: Hash[,smb://SERVER-PC/Movie Archive 1/Hulk.2003.BluRay.1080p.DTS.x264.dxva-BTT/]:DB=[],Computed=[]
  268. 21:25:02 T:3532 M:1094393856   DEBUG: VIDEO::CVideoInfoScanner::DoScan - Finished dir: smb://SERVER-PC/Movie Archive 1/Hulk.2003.BluRay.1080p.DTS.x264.dxva-BTT/
  269. 21:25:02 T:3532 M:1093992448   DEBUG: VIDEO::CVideoInfoScanner::DoScan Skipping dir 'smb://SERVER-PC/Movie Archive 1/L.A.Confidential.1997.BluRay.1080p.DTS.x264.dxva-EuReKA/3. Movie/' due to no change
  270. 21:25:02 T:3532 M:1093992448   DEBUG: Hash[movies,smb://SERVER-PC/Movie Archive 1/L.A.Confidential.1997.BluRay.1080p.DTS.x264.dxva-EuReKA/3. Movie/]:DB=[E3849CA8A105232C398B8B879EF96CCA],Computed=[E3849CA8A105232C398B8B879EF96CCA]
  271. 21:25:02 T:3532 M:1093992448   DEBUG: VIDEO::CVideoInfoScanner::DoScan - Finished dir: smb://SERVER-PC/Movie Archive 1/L.A.Confidential.1997.BluRay.1080p.DTS.x264.dxva-EuReKA/3. Movie/
  272. 21:25:02 T:3532 M:1093967872   DEBUG: Hash[,smb://SERVER-PC/Movie Archive 1/Leon The Professional 1994.DC.BluRay 1080p DTS x264 dxva-EuReKA/]:DB=[],Computed=[]
  273. 21:25:02 T:3532 M:1093967872   DEBUG: VIDEO::CVideoInfoScanner::DoScan - Finished dir: smb://SERVER-PC/Movie Archive 1/Leon The Professional 1994.DC.BluRay 1080p DTS x264 dxva-EuReKA/
  274. 21:25:02 T:3532 M:1093943296   DEBUG: Hash[,smb://SERVER-PC/Movie Archive 1/Nyckeln till Provance (1990)/]:DB=[],Computed=[]
  275. 21:25:02 T:3532 M:1093943296   DEBUG: VIDEO::CVideoInfoScanner::DoScan - Finished dir: smb://SERVER-PC/Movie Archive 1/Nyckeln till Provance (1990)/
  276. 21:25:02 T:3532 M:1093894144   DEBUG: Hash[,smb://SERVER-PC/Movie Archive 1/Oldboy.2003.1080p.BluRay.x264-FSiHD/]:DB=[],Computed=[]
  277. 21:25:02 T:3532 M:1093894144   DEBUG: VIDEO::CVideoInfoScanner::DoScan - Finished dir: smb://SERVER-PC/Movie Archive 1/Oldboy.2003.1080p.BluRay.x264-FSiHD/
  278. 21:25:02 T:3532 M:1093742592   DEBUG: Hash[,smb://SERVER-PC/Movie Archive 1/Pirates.of.the.Caribbean.Trilogy.2003-2007.BluRay.1080p.DTS.x264.dxva-EuReKA/Pirates.of.the.Caribbean.I.2003.BluRay.1080p.DTS.x264.dxva-EuReKA/3. Movie/]:DB=[],Computed=[]
  279. 21:25:02 T:3532 M:1093742592   DEBUG: VIDEO::CVideoInfoScanner::DoScan - Finished dir: smb://SERVER-PC/Movie Archive 1/Pirates.of.the.Caribbean.Trilogy.2003-2007.BluRay.1080p.DTS.x264.dxva-EuReKA/Pirates.of.the.Caribbean.I.2003.BluRay.1080p.DTS.x264.dxva-EuReKA/3. Movie/
  280. 21:25:02 T:3532 M:1093525504   DEBUG: Hash[,smb://SERVER-PC/Movie Archive 1/Pirates.of.the.Caribbean.Trilogy.2003-2007.BluRay.1080p.DTS.x264.dxva-EuReKA/Pirates.of.the.Caribbean.II.2006.BluRay.1080p.DTS.x264.dxva-EuReKA/3. Movie/]:DB=[],Computed=[]
  281. 21:25:02 T:3532 M:1093525504   DEBUG: VIDEO::CVideoInfoScanner::DoScan - Finished dir: smb://SERVER-PC/Movie Archive 1/Pirates.of.the.Caribbean.Trilogy.2003-2007.BluRay.1080p.DTS.x264.dxva-EuReKA/Pirates.of.the.Caribbean.II.2006.BluRay.1080p.DTS.x264.dxva-EuReKA/3. Movie/
  282. 21:25:02 T:3532 M:1093394432   DEBUG: Hash[,smb://SERVER-PC/Movie Archive 1/Pirates.of.the.Caribbean.Trilogy.2003-2007.BluRay.1080p.DTS.x264.dxva-EuReKA/Pirates.of.the.Caribbean.III.2007.BluRay.1080p.DTS.x264.dxva-EuReKA/3. Movie/]:DB=[],Computed=[]
  283. 21:25:02 T:3532 M:1093394432   DEBUG: VIDEO::CVideoInfoScanner::DoScan - Finished dir: smb://SERVER-PC/Movie Archive 1/Pirates.of.the.Caribbean.Trilogy.2003-2007.BluRay.1080p.DTS.x264.dxva-EuReKA/Pirates.of.the.Caribbean.III.2007.BluRay.1080p.DTS.x264.dxva-EuReKA/3. Movie/
  284. 21:25:02 T:3532 M:1093246976   DEBUG: Hash[,smb://SERVER-PC/Movie Archive 1/Requiem.For.A.Dream.Directors.Cut.2000.BluRay.1080p.DTS.x264.dxva-FLAWL3SS/Movie/]:DB=[],Computed=[]
  285. 21:25:02 T:3532 M:1093246976   DEBUG: VIDEO::CVideoInfoScanner::DoScan - Finished dir: smb://SERVER-PC/Movie Archive 1/Requiem.For.A.Dream.Directors.Cut.2000.BluRay.1080p.DTS.x264.dxva-FLAWL3SS/Movie/
  286. 21:25:02 T:3532 M:1093095424   DEBUG: VIDEO::CVideoInfoScanner::DoScan Skipping dir 'smb://SERVER-PC/Movie Archive 1/Sherlock.Holmes.2009.Bluray.1080p.DTSMA.x264.dxva-FraMeSToR/' due to no change
  287. 21:25:02 T:3532 M:1093095424   DEBUG: Hash[movies,smb://SERVER-PC/Movie Archive 1/Sherlock.Holmes.2009.Bluray.1080p.DTSMA.x264.dxva-FraMeSToR/]:DB=[34D6CD2917AA91E2648293B2C0A48180],Computed=[34D6CD2917AA91E2648293B2C0A48180]
  288. 21:25:02 T:3532 M:1093095424   DEBUG: VIDEO::CVideoInfoScanner::DoScan - Finished dir: smb://SERVER-PC/Movie Archive 1/Sherlock.Holmes.2009.Bluray.1080p.DTSMA.x264.dxva-FraMeSToR/
  289. 21:25:02 T:3532 M:1093009408   DEBUG: Hash[,smb://SERVER-PC/Movie Archive 1/Sin.City.2005.BluRay.1080p.DTS.x264.dxva-EuReKA/3. Movie/]:DB=[],Computed=[]
  290. 21:25:02 T:3532 M:1093009408   DEBUG: VIDEO::CVideoInfoScanner::DoScan - Finished dir: smb://SERVER-PC/Movie Archive 1/Sin.City.2005.BluRay.1080p.DTS.x264.dxva-EuReKA/3. Movie/
  291. 21:25:02 T:3532 M:1092788224   DEBUG: VIDEO::CVideoInfoScanner::DoScan Skipping dir 'smb://SERVER-PC/Movie Archive 1/Sky.Captain.and.the.World.of.Tomorrow.2004.1080p.BluRay.DTS.x264-CtrlHD/' due to no change
  292. 21:25:02 T:3532 M:1092788224   DEBUG: Hash[movies,smb://SERVER-PC/Movie Archive 1/Sky.Captain.and.the.World.of.Tomorrow.2004.1080p.BluRay.DTS.x264-CtrlHD/]:DB=[258B8815330CBF151C44D7EF0A56610B],Computed=[258B8815330CBF151C44D7EF0A56610B]
  293. 21:25:02 T:3532 M:1092788224   DEBUG: VIDEO::CVideoInfoScanner::DoScan - Finished dir: smb://SERVER-PC/Movie Archive 1/Sky.Captain.and.the.World.of.Tomorrow.2004.1080p.BluRay.DTS.x264-CtrlHD/
  294. 21:25:02 T:3532 M:1092775936   DEBUG: Hash[,smb://SERVER-PC/Movie Archive 1/Sympathy.For.Mr.Vengeance.2002.BluRay.1080p.DTS.x264-CHD/]:DB=[],Computed=[]
  295. 21:25:02 T:3532 M:1092775936   DEBUG: VIDEO::CVideoInfoScanner::DoScan - Finished dir: smb://SERVER-PC/Movie Archive 1/Sympathy.For.Mr.Vengeance.2002.BluRay.1080p.DTS.x264-CHD/
  296. 21:25:02 T:3532 M:1092681728   DEBUG: Hash[,smb://SERVER-PC/Movie Archive 1/Taken.2008.BluRay.1080p.DTS.x264.dxva-EuReKA/3. Movie/]:DB=[],Computed=[]
  297. 21:25:02 T:3532 M:1092681728   DEBUG: VIDEO::CVideoInfoScanner::DoScan - Finished dir: smb://SERVER-PC/Movie Archive 1/Taken.2008.BluRay.1080p.DTS.x264.dxva-EuReKA/3. Movie/
  298. 21:25:02 T:2424 M:1092546560   DEBUG: LoadLibraryExA called with flags:
  299.                                              - LOAD_WITH_ALTERED_SEARCH_PATH
  300. 21:25:02 T:2424 M:1092534272   DEBUG: LoadLibraryA('zlib.pyd')
  301. 21:25:02 T:2424 M:1092534272   DEBUG: Win32DllLoader::Load(special://xbmc/system/python/DLLs\zlib.pyd)
  302. 21:25:02 T:3532 M:1092534272   DEBUG: Hash[,smb://SERVER-PC/Movie Archive 1/The Assassination of Jesse James by the Coward Robert Ford 2007 1080p Blu-ray VC-1 DD5.1/JESSE_JAMES_B5/BDMV/STREAM/]:DB=[],Computed=[]
  303. 21:25:02 T:3532 M:1092534272   DEBUG: VIDEO::CVideoInfoScanner::DoScan - Finished dir: smb://SERVER-PC/Movie Archive 1/The Assassination of Jesse James by the Coward Robert Ford 2007 1080p Blu-ray VC-1 DD5.1/JESSE_JAMES_B5/BDMV/STREAM/
  304. 21:25:02 T:2424 M:1092521984   DEBUG: LoadLibraryA('python24.dll')
  305. 21:25:02 T:2424 M:1092521984   DEBUG: LoadLibrary('python24.dll') returning: 061BC5C8
  306. 21:25:02 T:2424 M:1092521984   DEBUG: LoadLibrary('zlib.pyd') returning: 0655BAE0
  307. 21:25:02 T:3532 M:1092763648   DEBUG: Hash[,smb://SERVER-PC/Movie Archive 1/The Mummy Trilogy 1080p DTS dxva EuReKA/The.Mummy.1999.BluRay.1080p.DTS.x264.dxva-EuReKA/3. Movie/]:DB=[],Computed=[]
  308. 21:25:02 T:3532 M:1092763648   DEBUG: VIDEO::CVideoInfoScanner::DoScan - Finished dir: smb://SERVER-PC/Movie Archive 1/The Mummy Trilogy 1080p DTS dxva EuReKA/The.Mummy.1999.BluRay.1080p.DTS.x264.dxva-EuReKA/3. Movie/
  309. 21:25:02 T:3532 M:1092558848   DEBUG: Hash[,smb://SERVER-PC/Movie Archive 1/The Mummy Trilogy 1080p DTS dxva EuReKA/The.Mummy.Returns.2001.BluRay.1080p.DTS.x264.dxva-EuReKA/3. Movie/]:DB=[],Computed=[]
  310. 21:25:02 T:3532 M:1092558848   DEBUG: VIDEO::CVideoInfoScanner::DoScan - Finished dir: smb://SERVER-PC/Movie Archive 1/The Mummy Trilogy 1080p DTS dxva EuReKA/The.Mummy.Returns.2001.BluRay.1080p.DTS.x264.dxva-EuReKA/3. Movie/
  311. 21:25:02 T:3532 M:1092460544   DEBUG: Hash[,smb://SERVER-PC/Movie Archive 1/The Mummy Trilogy 1080p DTS dxva EuReKA/The.Mummy.Tomb.of.The.Dragon.Emperor.2008.BluRay.1080p.DTS.dxva-EuReKA/3. Movie/]:DB=[],Computed=[]
  312. 21:25:02 T:3532 M:1092460544   DEBUG: VIDEO::CVideoInfoScanner::DoScan - Finished dir: smb://SERVER-PC/Movie Archive 1/The Mummy Trilogy 1080p DTS dxva EuReKA/The.Mummy.Tomb.of.The.Dragon.Emperor.2008.BluRay.1080p.DTS.dxva-EuReKA/3. Movie/
  313. 21:25:02 T:3532 M:1092345856   DEBUG: VIDEO::CVideoInfoScanner::DoScan Skipping dir 'smb://SERVER-PC/Movie Archive 1/The.Bourne.I.II.III.BluRay.1080p.x264.DTS-WiKi/The.Bourne.Identity.2002.BluRay.1080p.x264.DTS-WiKi/' due to no change
  314. 21:25:02 T:3532 M:1092345856   DEBUG: Hash[movies,smb://SERVER-PC/Movie Archive 1/The.Bourne.I.II.III.BluRay.1080p.x264.DTS-WiKi/The.Bourne.Identity.2002.BluRay.1080p.x264.DTS-WiKi/]:DB=[47295A03EC9FCC5302BDAC87983D64BE],Computed=[47295A03EC9FCC5302BDAC87983D64BE]
  315. 21:25:02 T:3532 M:1092345856   DEBUG: VIDEO::CVideoInfoScanner::DoScan - Finished dir: smb://SERVER-PC/Movie Archive 1/The.Bourne.I.II.III.BluRay.1080p.x264.DTS-WiKi/The.Bourne.Identity.2002.BluRay.1080p.x264.DTS-WiKi/
  316. 21:25:02 T:2424 M:1092194304   DEBUG:   msg: 'import site' failed; use -v for traceback
  317. 21:25:02 T:3532 M:1092194304   DEBUG: VIDEO::CVideoInfoScanner::DoScan Skipping dir 'smb://SERVER-PC/Movie Archive 1/The.Bourne.I.II.III.BluRay.1080p.x264.DTS-WiKi/The.Bourne.Supremacy.2004.BluRay.1080p.x264.DTS-WiKi/' due to no change
  318. 21:25:02 T:3532 M:1092194304   DEBUG: Hash[movies,smb://SERVER-PC/Movie Archive 1/The.Bourne.I.II.III.BluRay.1080p.x264.DTS-WiKi/The.Bourne.Supremacy.2004.BluRay.1080p.x264.DTS-WiKi/]:DB=[045EDF969CBABAC12BD40EEC135AFAB9],Computed=[045EDF969CBABAC12BD40EEC135AFAB9]
  319. 21:25:02 T:3532 M:1092194304   DEBUG: VIDEO::CVideoInfoScanner::DoScan - Finished dir: smb://SERVER-PC/Movie Archive 1/The.Bourne.I.II.III.BluRay.1080p.x264.DTS-WiKi/The.Bourne.Supremacy.2004.BluRay.1080p.x264.DTS-WiKi/
  320. 21:25:02 T:2424 M:1092091904   DEBUG: new python thread created. id=1
  321. 21:25:02 T:2424 M:1092091904   DEBUG: CApplication::ExecuteXBMCAction : Translating SetFocus(9000)
  322. 21:25:02 T:3544 M:1092079616   DEBUG: thread start, auto delete: 0
  323. 21:25:02 T:3544 M:1092079616   DEBUG: Python thread: start processing
  324. 21:25:02 T:2424 M:1092079616   DEBUG: CApplication::ExecuteXBMCAction : To SetFocus(9000)
  325. 21:25:02 T:3544 M:1089531904   DEBUG:   msg: 'import site' failed; use -v for traceback
  326. 21:25:02 T:3544 M:1089515520  NOTICE: -->Python Interpreter Initialized<--
  327. 21:25:02 T:3544 M:1089515520   DEBUG: XBPyThread::Process - The source file to load is special://skin/scripts/RecentlyAdded.py
  328. 21:25:02 T:3544 M:1089511424   DEBUG: XBPyThread::Process - Setting the Python path to C:\Program Files\XBMC\skin\Confluence\scripts;special://xbmc/system/python/python24.zlib;special://xbmc/system/python/DLLs;special://xbmc/system/python/Lib
  329. 21:25:02 T:3544 M:1089511424   DEBUG: XBPyThread::Process - Entering source directory C:\Program Files\XBMC\skin\Confluence\scripts
  330. 21:25:02 T:3532 M:1087762432   DEBUG: VIDEO::CVideoInfoScanner::DoScan Skipping dir 'smb://SERVER-PC/Movie Archive 1/The.Bourne.I.II.III.BluRay.1080p.x264.DTS-WiKi/The.Bourne.Ultimatum.2007.BluRay.1080p.x264.DTS-WiKi/' due to no change
  331. 21:25:02 T:3532 M:1087762432   DEBUG: Hash[movies,smb://SERVER-PC/Movie Archive 1/The.Bourne.I.II.III.BluRay.1080p.x264.DTS-WiKi/The.Bourne.Ultimatum.2007.BluRay.1080p.x264.DTS-WiKi/]:DB=[43E6CEBEAE2F69E09FFEC95B48C5A06A],Computed=[43E6CEBEAE2F69E09FFEC95B48C5A06A]
  332. 21:25:02 T:3532 M:1087762432   DEBUG: VIDEO::CVideoInfoScanner::DoScan - Finished dir: smb://SERVER-PC/Movie Archive 1/The.Bourne.I.II.III.BluRay.1080p.x264.DTS-WiKi/The.Bourne.Ultimatum.2007.BluRay.1080p.x264.DTS-WiKi/
  333. 21:25:03 T:3532 M:1085947904   DEBUG: Hash[,smb://SERVER-PC/Movie Archive 1/The.Dark.Knight.BluRay.1080p.DTS.x264.dxva-EuReKA/3. Movie/]:DB=[],Computed=[]
  334. 21:25:03 T:3532 M:1085947904   DEBUG: VIDEO::CVideoInfoScanner::DoScan - Finished dir: smb://SERVER-PC/Movie Archive 1/The.Dark.Knight.BluRay.1080p.DTS.x264.dxva-EuReKA/3. Movie/
  335. 21:25:03 T:3532 M:1085321216   DEBUG: Hash[,smb://SERVER-PC/Movie Archive 1/The.Godfather.Trilogy.1972-1990.BluRay.1080p.DTS.x264.dxva-EuReKA/The.Godfather.1972.BluRay.1080p.DTS.x264.dxva-EuReKA/3. Movie/]:DB=[],Computed=[]
  336. 21:25:03 T:3532 M:1085308928   DEBUG: VIDEO::CVideoInfoScanner::DoScan - Finished dir: smb://SERVER-PC/Movie Archive 1/The.Godfather.Trilogy.1972-1990.BluRay.1080p.DTS.x264.dxva-EuReKA/The.Godfather.1972.BluRay.1080p.DTS.x264.dxva-EuReKA/3. Movie/
  337. 21:25:03 T:3532 M:1083052032   DEBUG: Hash[,smb://SERVER-PC/Movie Archive 1/The.Godfather.Trilogy.1972-1990.BluRay.1080p.DTS.x264.dxva-EuReKA/The.Godfather.II.1974.BluRay.1080p.DTS.x264.dxva-EuReKA/3. Movie/]:DB=[],Computed=[]
  338. 21:25:03 T:3532 M:1083052032   DEBUG: VIDEO::CVideoInfoScanner::DoScan - Finished dir: smb://SERVER-PC/Movie Archive 1/The.Godfather.Trilogy.1972-1990.BluRay.1080p.DTS.x264.dxva-EuReKA/The.Godfather.II.1974.BluRay.1080p.DTS.x264.dxva-EuReKA/3. Movie/
  339. 21:25:03 T:3532 M:1081774080   DEBUG: Hash[,smb://SERVER-PC/Movie Archive 1/The.Godfather.Trilogy.1972-1990.BluRay.1080p.DTS.x264.dxva-EuReKA/The.Godfather.III.1990.BluRay.1080p.DTS.x264.dxva-EuReKA/3. Movie/]:DB=[],Computed=[]
  340. 21:25:03 T:3532 M:1082925056   DEBUG: VIDEO::CVideoInfoScanner::DoScan - Finished dir: smb://SERVER-PC/Movie Archive 1/The.Godfather.Trilogy.1972-1990.BluRay.1080p.DTS.x264.dxva-EuReKA/The.Godfather.III.1990.BluRay.1080p.DTS.x264.dxva-EuReKA/3. Movie/
  341. 21:25:03 T:3492 M:1082687488   DEBUG: CImageLoader::DoWork - took 346 ms to load special://skin/backgrounds/videos.jpg
  342. 21:25:03 T:3532 M:1082757120   DEBUG: Hash[,smb://SERVER-PC/Movie Archive 1/The.Good.the.Bad.and.the.Ugly.(1966).BluRay.1080p.x264.DTS-CtrlHD/]:DB=[],Computed=[]
  343. 21:25:03 T:3532 M:1082757120   DEBUG: VIDEO::CVideoInfoScanner::DoScan - Finished dir: smb://SERVER-PC/Movie Archive 1/The.Good.the.Bad.and.the.Ugly.(1966).BluRay.1080p.x264.DTS-CtrlHD/
  344. 21:25:03 T:3544 M:1080090624   DEBUG: LoadLibraryExA called with flags:
  345.                                              - LOAD_WITH_ALTERED_SEARCH_PATH
  346. 21:25:03 T:3544 M:1079943168   DEBUG: LoadLibraryA('_socket.pyd')
  347. 21:25:03 T:3544 M:1079611392   DEBUG: Win32DllLoader::Load(special://xbmc/system/python/DLLs\_socket.pyd)
  348. 21:25:03 T:3544 M:1082699776   DEBUG: LoadLibraryA('python24.dll')
  349. 21:25:03 T:3544 M:1082699776   DEBUG: LoadLibrary('python24.dll') returning: 061BC5C8
  350. 21:25:03 T:3544 M:1082699776   DEBUG: LoadLibrary('_socket.pyd') returning: 061BC758
  351. 21:25:03 T:3544 M:1082695680   DEBUG: LoadLibraryExA called with flags:
  352.                                              - LOAD_WITH_ALTERED_SEARCH_PATH
  353. 21:25:03 T:3544 M:1082695680   DEBUG: LoadLibraryA('_ssl.pyd')
  354. 21:25:03 T:3544 M:1082695680   DEBUG: Win32DllLoader::Load(special://xbmc/system/python/DLLs\_ssl.pyd)
  355. 21:25:03 T:3532 M:1082683392   DEBUG: Hash[,smb://SERVER-PC/Movie Archive 1/The.Incredible.Hulk.2008.BluRay.1080p.DTS.dxva-EuReKA/3. Movie/]:DB=[],Computed=[]
  356. 21:25:03 T:3532 M:1082671104   DEBUG: VIDEO::CVideoInfoScanner::DoScan - Finished dir: smb://SERVER-PC/Movie Archive 1/The.Incredible.Hulk.2008.BluRay.1080p.DTS.dxva-EuReKA/3. Movie/
  357. 21:25:03 T:3544 M:1082667008   DEBUG: LoadLibraryA('python24.dll')
  358. 21:25:03 T:3544 M:1082605568   DEBUG: LoadLibrary('python24.dll') returning: 061BC5C8
  359. 21:25:03 T:3544 M:1082261504   DEBUG: LoadLibrary('_ssl.pyd') returning: 061BC6B8
  360. 21:25:03 T:3532 M:1081061376   DEBUG: Hash[,smb://SERVER-PC/Movie Archive 1/The_Complete_Matrix_Trilogy/The_Complete_Matrix_Trilogy_1_The_Matrix.Blu-ray/BDMV/STREAM/]:DB=[],Computed=[]
  361. 21:25:03 T:3532 M:1081061376   DEBUG: VIDEO::CVideoInfoScanner::DoScan - Finished dir: smb://SERVER-PC/Movie Archive 1/The_Complete_Matrix_Trilogy/The_Complete_Matrix_Trilogy_1_The_Matrix.Blu-ray/BDMV/STREAM/
  362. 21:25:03 T:3532 M:1081602048   DEBUG: Hash[,smb://SERVER-PC/Movie Archive 1/The_Complete_Matrix_Trilogy/The_Complete_Matrix_Trilogy_1_The_Matrix_Revolutions.Blu-ray/BDMV/STREAM/]:DB=[],Computed=[]
  363. 21:25:03 T:3532 M:1081548800   DEBUG: VIDEO::CVideoInfoScanner::DoScan - Finished dir: smb://SERVER-PC/Movie Archive 1/The_Complete_Matrix_Trilogy/The_Complete_Matrix_Trilogy_1_The_Matrix_Revolutions.Blu-ray/BDMV/STREAM/
  364. 21:25:03 T:3532 M:1083858944   DEBUG: Hash[,smb://SERVER-PC/Movie Archive 1/The_Complete_Matrix_Trilogy/The_Complete_Matrix_Trilogy_2_The_Matrix_Reloaded.Blu-ray/BDMV/STREAM/]:DB=[],Computed=[]
  365. 21:25:03 T:3532 M:1083858944   DEBUG: VIDEO::CVideoInfoScanner::DoScan - Finished dir: smb://SERVER-PC/Movie Archive 1/The_Complete_Matrix_Trilogy/The_Complete_Matrix_Trilogy_2_The_Matrix_Reloaded.Blu-ray/BDMV/STREAM/
  366. 21:25:03 T:2424 M:1083809792   DEBUG: HttpApi Start command: SetResponseFormat  paras: SetResponseFormat
  367. 21:25:03 T:3532 M:1083785216   DEBUG: VIDEO::CVideoInfoScanner::DoScan Skipping dir 'smb://SERVER-PC/Movie Archive 1/Twelve.Monkeys.1995.Bluray.1080p.DTS.Audio.x264-CHD/' due to no change
  368. 21:25:03 T:3532 M:1083785216   DEBUG: Hash[movies,smb://SERVER-PC/Movie Archive 1/Twelve.Monkeys.1995.Bluray.1080p.DTS.Audio.x264-CHD/]:DB=[A5C1920B5A1DE3209C6C5326F5BE3D00],Computed=[A5C1920B5A1DE3209C6C5326F5BE3D00]
  369. 21:25:03 T:3532 M:1083785216   DEBUG: VIDEO::CVideoInfoScanner::DoScan - Finished dir: smb://SERVER-PC/Movie Archive 1/Twelve.Monkeys.1995.Bluray.1080p.DTS.Audio.x264-CHD/
  370. 21:25:03 T:2424 M:1083785216   DEBUG: HttpApi Start command: SetResponseFormat  paras: SetResponseFormat; OpenRecord;<record>
  371. 21:25:03 T:3532 M:1083785216   DEBUG: Hash[,smb://SERVER-PC/Movie Archive 1/Underworld.Duology.BluRay.1080p.DTS.x264.dxva-EuReKA/Underworld.Evolution.2006.BluRay.1080p.DTS.x264.dxva-EuReKA/3. Movie/]:DB=[],Computed=[]
  372. 21:25:03 T:3532 M:1083785216   DEBUG: VIDEO::CVideoInfoScanner::DoScan - Finished dir: smb://SERVER-PC/Movie Archive 1/Underworld.Duology.BluRay.1080p.DTS.x264.dxva-EuReKA/Underworld.Evolution.2006.BluRay.1080p.DTS.x264.dxva-EuReKA/3. Movie/
  373. 21:25:03 T:2424 M:1083785216   DEBUG: HttpApi Start command: SetResponseFormat  paras: SetResponseFormat; CloseRecord;</record>
  374. 21:25:03 T:3532 M:1083785216   DEBUG: Hash[,smb://SERVER-PC/Movie Archive 1/Underworld.Duology.BluRay.1080p.DTS.x264.dxva-EuReKA/Underworld.Extended.2003.BluRay.1080p.DTS.x264.dxva-EuReKA/3. Movie/]:DB=[],Computed=[]
  375. 21:25:03 T:3532 M:1083785216   DEBUG: VIDEO::CVideoInfoScanner::DoScan - Finished dir: smb://SERVER-PC/Movie Archive 1/Underworld.Duology.BluRay.1080p.DTS.x264.dxva-EuReKA/Underworld.Extended.2003.BluRay.1080p.DTS.x264.dxva-EuReKA/3. Movie/
  376. 21:25:03 T:3532 M:1083785216   DEBUG: Hash[,smb://SERVER-PC/Movie Archive 1/Underworld.Rise.of.the.Lycans.2009.BluRay.1080p.DTS.x264.dxva-BTT/]:DB=[],Computed=[]
  377. 21:25:03 T:3532 M:1083785216   DEBUG: VIDEO::CVideoInfoScanner::DoScan - Finished dir: smb://SERVER-PC/Movie Archive 1/Underworld.Rise.of.the.Lycans.2009.BluRay.1080p.DTS.x264.dxva-BTT/
  378. 21:25:03 T:2424 M:1083785216   DEBUG: HttpApi Start command: QueryVideoDatabase  paras: QueryVideoDatabase; select * from movieview order by idMovie desc limit 4
  379. 21:25:03 T:2424 M:1083785216   DEBUG: CDatabase: Connecting to database MyVideos34.db at C:\Users\HTPC\AppData\Roaming\XBMC\userdata\Database:
  380. 21:25:03 T:3532 M:1083785216   DEBUG: Hash[,smb://SERVER-PC/Movie Archive 1/V.For.Vendetta.2005.BluRay.1080p.DTS.VC1.Remux-EuReKA/3. Movie/]:DB=[],Computed=[]
  381. 21:25:03 T:3532 M:1083785216   DEBUG: VIDEO::CVideoInfoScanner::DoScan - Finished dir: smb://SERVER-PC/Movie Archive 1/V.For.Vendetta.2005.BluRay.1080p.DTS.VC1.Remux-EuReKA/3. Movie/
  382. 21:25:03 T:3532 M:1083748352   DEBUG: Hash[,smb://SERVER-PC/Movie Archive 1/Watchmen.DC.2009.Bluray.1080p.DTS.x264.dxva-EuReKA/3.Movie/]:DB=[],Computed=[]
  383. 21:25:03 T:3532 M:1083748352   DEBUG: VIDEO::CVideoInfoScanner::DoScan - Finished dir: smb://SERVER-PC/Movie Archive 1/Watchmen.DC.2009.Bluray.1080p.DTS.x264.dxva-EuReKA/3.Movie/
  384. 21:25:03 T:3532 M:1083748352   DEBUG: Hash[,smb://SERVER-PC/Movie Archive 1/Wyatt Earp (1994) BD50 Bluray VC-1/BDMV/STREAM/]:DB=[],Computed=[]
  385. 21:25:03 T:3532 M:1083748352   DEBUG: VIDEO::CVideoInfoScanner::DoScan - Finished dir: smb://SERVER-PC/Movie Archive 1/Wyatt Earp (1994) BD50 Bluray VC-1/BDMV/STREAM/
  386. 21:25:03 T:3532 M:1083748352   DEBUG: VIDEO::CVideoInfoScanner::DoScan Skipping dir 'smb://SERVER-PC/Movie Archive 1/X-Men.Trilogy.2000-2006.BluRay.1080p.DTS.x264.dxva-EuReKA/3. Movies/' due to no change
  387. 21:25:03 T:3532 M:1083748352   DEBUG: Hash[movies,smb://SERVER-PC/Movie Archive 1/X-Men.Trilogy.2000-2006.BluRay.1080p.DTS.x264.dxva-EuReKA/3. Movies/]:DB=[0854557EECC4EAA4DC48781B117412C4],Computed=[0854557EECC4EAA4DC48781B117412C4]
  388. 21:25:03 T:3532 M:1083748352   DEBUG: VIDEO::CVideoInfoScanner::DoScan - Finished dir: smb://SERVER-PC/Movie Archive 1/X-Men.Trilogy.2000-2006.BluRay.1080p.DTS.x264.dxva-EuReKA/3. Movies/
  389. 21:25:03 T:3532 M:1083748352   DEBUG: Hash[,smb://SERVER-PC/Movie Archive 1/Æon.Flux.2005.BluRay.1080p.DTS.x264.dxva-EuReKA/]:DB=[],Computed=[]
  390. 21:25:03 T:3532 M:1083748352   DEBUG: VIDEO::CVideoInfoScanner::DoScan - Finished dir: smb://SERVER-PC/Movie Archive 1/Æon.Flux.2005.BluRay.1080p.DTS.x264.dxva-EuReKA/
  391. 21:25:03 T:3532 M:1083723776   DEBUG: Hash[tvshows,smb://SERVER-PC/TV-series 1/]:DB=[38781DEA4F8661261030C4B080326B17],Computed=[38781DEA4F8661261030C4B080326B17]
  392. 21:25:03 T:3532 M:1083723776   DEBUG: VIDEO::CVideoInfoScanner::DoScan - Finished dir: smb://SERVER-PC/TV-series 1/
  393. 21:25:03 T:3532 M:1083723776   DEBUG: Hash[tvshows,smb://SERVER-PC/TV-series 1/24/]:DB=[],Computed=[]
  394. 21:25:03 T:2424 M:1084416000   DEBUG: HttpApi Start command: QueryVideoDatabase  paras: QueryVideoDatabase; select * from episodeview order by idepisode desc limit 4
  395. 21:25:03 T:2424 M:1084416000   DEBUG: CDatabase: Connecting to database MyVideos34.db at C:\Users\HTPC\AppData\Roaming\XBMC\userdata\Database:
  396. 21:25:03 T:2424 M:1082773504   DEBUG: SDLKeyboard: scancode: 72, sym: 273, unicode: 0, modifier: 0
  397. 21:25:03 T:2424 M:1082773504   DEBUG: CApplication::OnKey: 61478 pressed, action is Up
  398. 21:25:03 T:3548 M:1082507264   DEBUG: thread start, auto delete: 1
  399. 21:25:03 T:3544 M:1082380288    INFO: Scriptresult: Success
  400. 21:25:04 T:3532 M:1077006336   DEBUG: Not adding item to library as no info was found :(
  401. 21:25:04 T:3532 M:1077006336   DEBUG: VIDEO::CVideoInfoScanner::DoScan - Finished dir: smb://SERVER-PC/TV-series 1/24/
  402. 21:25:04 T:3532 M:1077006336   DEBUG: Hash[tvshows,smb://SERVER-PC/TV-series 1/American Dad/]:DB=[],Computed=[]
  403. 21:25:04 T:2424 M:1079390208   DEBUG: SDLKeyboard: scancode: 28, sym: 13, unicode: 13, modifier: 0
  404. 21:25:04 T:2424 M:1079390208   DEBUG: CApplication::OnKey: 61453 pressed, action is Select
  405. 21:25:04 T:2424 M:1079390208   DEBUG: CApplication::ExecuteXBMCAction : Translating ActivateWindow(VideoLibrary,MovieTitles,return)
  406. 21:25:04 T:2424 M:1079390208   DEBUG: CApplication::ExecuteXBMCAction : To ActivateWindow(VideoLibrary,MovieTitles,return)
  407. 21:25:04 T:2424 M:1079390208   DEBUG: Activating window ID: 10025
  408. 21:25:04 T:2424 M:1079390208   DEBUG: Checking if window ID 10024 is locked.
  409. 21:25:04 T:2424 M:1079390208   DEBUG: ------ Window Deinit (Home.xml) ------
  410. 21:25:04 T:3532 M:1079390208   DEBUG: Not adding item to library as no info was found :(
  411. 21:25:04 T:3532 M:1079390208   DEBUG: VIDEO::CVideoInfoScanner::DoScan - Finished dir: smb://SERVER-PC/TV-series 1/American Dad/
  412. 21:25:04 T:3532 M:1079390208   DEBUG: Hash[tvshows,smb://SERVER-PC/TV-series 1/Big Love/]:DB=[],Computed=[]
  413. 21:25:04 T:3544 M:1079328768    INFO: Python script stopped
  414. 21:25:04 T:3544 M:1079328768   DEBUG: Thread 3544 terminating
  415. 21:25:04 T:3532 M:1079410688   DEBUG: Not adding item to library as no info was found :(
  416. 21:25:04 T:3532 M:1079410688   DEBUG: VIDEO::CVideoInfoScanner::DoScan - Finished dir: smb://SERVER-PC/TV-series 1/Big Love/
  417. 21:25:04 T:3532 M:1079410688   DEBUG: Hash[tvshows,smb://SERVER-PC/TV-series 1/Breaking Bad/]:DB=[],Computed=[]
  418. 21:25:04 T:3532 M:1079418880   DEBUG: Not adding item to library as no info was found :(
  419. 21:25:04 T:3532 M:1079418880   DEBUG: VIDEO::CVideoInfoScanner::DoScan - Finished dir: smb://SERVER-PC/TV-series 1/Breaking Bad/
  420. 21:25:04 T:3532 M:1079418880   DEBUG: Hash[tvshows,smb://SERVER-PC/TV-series 1/Legend of the Seeker/]:DB=[],Computed=[]
  421. 21:25:04 T:2424 M:1079418880    INFO: Attempting to return to: MovieTitles
  422. 21:25:04 T:2424 M:1079414784   DEBUG: CDatabase: Connecting to database ViewModes at C:\Users\HTPC\AppData\Roaming\XBMC\userdata\Database:
  423. 21:25:04 T:3548 M:1079369728   DEBUG: CDatabase: Connecting to database MyVideos34.db at C:\Users\HTPC\AppData\Roaming\XBMC\userdata\Database:
  424. 21:25:04 T:2424 M:1079242752   DEBUG: CDatabase: Connecting to database MyVideos34.db at C:\Users\HTPC\AppData\Roaming\XBMC\userdata\Database:
  425. 21:25:04 T:2424 M:1079242752   DEBUG: ------ Window Init (MyVideoNav.xml) ------
  426. 21:25:04 T:2424 M:1079242752    INFO: Loading skin file: MyVideoNav.xml
  427. 21:25:05 T:2424 M:1076756480   DEBUG: CDatabase: Connecting to database ViewModes at C:\Users\HTPC\AppData\Roaming\XBMC\userdata\Database:
  428. 21:25:05 T:3512 M:1076731904   DEBUG: CDatabase: Connecting to database MyVideos34.db at C:\Users\HTPC\AppData\Roaming\XBMC\userdata\Database:
  429. 21:25:05 T:3532 M:1076621312   DEBUG: Not adding item to library as no info was found :(
  430. 21:25:05 T:3532 M:1076609024   DEBUG: VIDEO::CVideoInfoScanner::DoScan - Finished dir: smb://SERVER-PC/TV-series 1/Legend of the Seeker/
  431. 21:25:05 T:3532 M:1076486144   DEBUG: Hash[tvshows,smb://SERVER-PC/TV-series 1/Lost/]:DB=[],Computed=[]
  432. 21:25:05 T:2424 M:1076486144   DEBUG: Load MyVideoNav.xml: 281.66ms
  433. 21:25:05 T:2424 M:1076076544   DEBUG: Alloc resources: 294.40ms (281.87 ms skin load)
  434. 21:25:05 T:2424 M:1076072448   DEBUG: CGUIMediaWindow::GetDirectory (videodb://1/2/)
  435. 21:25:05 T:2424 M:1076072448   DEBUG:   ParentPath = [videodb://1/2/]
  436. 21:25:05 T:3492 M:1076072448   DEBUG: CDatabase: Connecting to database MyVideos34.db at C:\Users\HTPC\AppData\Roaming\XBMC\userdata\Database:
  437. 21:25:05 T:3492 M:1076011008   DEBUG: CVideoDatabase::GetSetsNav query: select sets.idSet,sets.strSet,count(1),count(files.playCount) from sets join setlinkmovie on sets.idSet=setlinkmovie.idSet join movie on setlinkmovie.idMovie=movie.idMovie join files on files.idFile=movie.idFile  group by sets.idSet
  438. 21:25:05 T:3492 M:1076002816   DEBUG: CVideoDatabase::GetMoviesByWhere query: select * from movieview where movieview.idMovie NOT in (select idMovie from setlinkmovie)
  439. 21:25:05 T:3492 M:1075838976   DEBUG: Time for actual SQL query = 20
  440. 21:25:05 T:2424 M:1075601408   DEBUG: ------ Window Init (DialogBusy.xml) ------
  441. 21:25:05 T:2424 M:1075564544    INFO: Loading skin file: DialogBusy.xml
  442. 21:25:05 T:2424 M:1075560448   DEBUG: Load DialogBusy.xml: 6.30ms
  443. 21:25:05 T:2424 M:1075560448   DEBUG: Alloc resources: 6.46ms (6.46 ms skin load)
  444. 21:25:05 T:3492 M:1070419968   DEBUG: Time to retrieve movies from dataset = 179
  445. 21:25:05 T:2424 M:1071624192   DEBUG: CDatabase: Connecting to database ViewModes at C:\Users\HTPC\AppData\Roaming\XBMC\userdata\Database:
  446. 21:25:05 T:2424 M:1071603712   DEBUG: CDatabase: Connecting to database ViewModes at C:\Users\HTPC\AppData\Roaming\XBMC\userdata\Database:
  447. 21:25:05 T:2424 M:1071595520   DEBUG: CDatabase: Connecting to database ViewModes at C:\Users\HTPC\AppData\Roaming\XBMC\userdata\Database:
  448. 21:25:05 T:2424 M:1071595520   DEBUG: Saving fileitems [videodb://1/2/]
  449. 21:25:05 T:2424 M:1071616000   DEBUG:   -- items: 63, sort method: 23, ascending: true
  450. 21:25:05 T:2424 M:1071624192   DEBUG: CDatabase: Connecting to database MyVideos34.db at C:\Users\HTPC\AppData\Roaming\XBMC\userdata\Database:
  451. 21:25:05 T:3560 M:1071624192   DEBUG: thread start, auto delete: 0
  452. 21:25:05 T:2424 M:1071288320   DEBUG: ------ Window Deinit (DialogBusy.xml) ------
  453. 21:25:05 T:2424 M:1071374336   DEBUG: python thread 1 destructed
  454. 21:25:05 T:3532 M:1071386624   DEBUG: Not adding item to library as no info was found :(
  455. 21:25:05 T:3532 M:1071386624   DEBUG: VIDEO::CVideoInfoScanner::DoScan - Finished dir: smb://SERVER-PC/TV-series 1/Lost/
  456. 21:25:05 T:3532 M:1071362048   DEBUG: Hash[tvshows,smb://SERVER-PC/TV-series 1/Simpsons, The/]:DB=[],Computed=[]
  457. 21:25:05 T:3560 M:1071403008   DEBUG: Thread 3560 terminating
  458. 21:25:05 T:3532 M:1072263168   DEBUG: Not adding item to library as no info was found :(
  459. 21:25:05 T:3532 M:1072263168   DEBUG: VIDEO::CVideoInfoScanner::DoScan - Finished dir: smb://SERVER-PC/TV-series 1/Simpsons, The/
  460. 21:25:05 T:3532 M:1074724864   DEBUG: Hash[tvshows,smb://SERVER-PC/TV-series 1/South Park/]:DB=[],Computed=[]
  461. 21:25:06 T:3532 M:1074786304   DEBUG: Not adding item to library as no info was found :(
  462. 21:25:06 T:3532 M:1074786304   DEBUG: VIDEO::CVideoInfoScanner::DoScan - Finished dir: smb://SERVER-PC/TV-series 1/South Park/
  463. 21:25:06 T:3532 M:1074786304   DEBUG: Hash[tvshows,smb://SERVER-PC/TV-series 1/Spartacus - Blood and Sand/]:DB=[],Computed=[]
  464. 21:25:06 T:2424 M:1074307072   DEBUG: SDLKeyboard: scancode: 80, sym: 274, unicode: 0, modifier: 0
  465. 21:25:06 T:2424 M:1074307072   DEBUG: CApplication::OnKey: 61480 pressed, action is Down
  466. 21:25:06 T:3532 M:1072721920   DEBUG: Not adding item to library as no info was found :(
  467. 21:25:06 T:3532 M:1072717824   DEBUG: VIDEO::CVideoInfoScanner::DoScan - Finished dir: smb://SERVER-PC/TV-series 1/Spartacus - Blood and Sand/
  468. 21:25:06 T:3532 M:1072152576   DEBUG: Hash[tvshows,smb://SERVER-PC/TV-series 1/V (2009)/]:DB=[],Computed=[]
  469. 21:25:06 T:3532 M:1067274240   DEBUG: Not adding item to library as no info was found :(
  470. 21:25:06 T:3532 M:1067274240   DEBUG: VIDEO::CVideoInfoScanner::DoScan - Finished dir: smb://SERVER-PC/TV-series 1/V (2009)/
  471. 21:25:06 T:3532 M:1065390080   DEBUG: Hash[tvshows,smb://SERVER-PC/TV-series 2/Beavis.And.Butthead.V01-03.DVDRiP.XViD/]:DB=[ECD9560562B4B94BB6B96E94E5C15C79],Computed=[ECD9560562B4B94BB6B96E94E5C15C79]
  472. 21:25:06 T:3532 M:1065390080   DEBUG: VIDEO::CVideoInfoScanner::DoScan - Finished dir: smb://SERVER-PC/TV-series 2/Beavis.And.Butthead.V01-03.DVDRiP.XViD/
  473. 21:25:06 T:3532 M:1064452096   DEBUG: Hash[tvshows,smb://SERVER-PC/TV-series 2/Legend of the Seeker - Season 1/]:DB=[88EEBB601DA548F7D9D9A05D8E3BD7BF],Computed=[88EEBB601DA548F7D9D9A05D8E3BD7BF]
  474. 21:25:06 T:3532 M:1064439808   DEBUG: VIDEO::CVideoInfoScanner::DoScan - Finished dir: smb://SERVER-PC/TV-series 2/Legend of the Seeker - Season 1/
  475. 21:25:07 T:3532 M:1066983424   DEBUG: VIDEO::CVideoInfoScanner::Process - Finished scan
  476. 21:25:07 T:3532 M:1066983424  NOTICE: My Videos: Scanning for video info using worker thread, operation took 00:05
  477. 21:25:07 T:3532 M:1066983424    INFO: Video scan was stopped or finished ... restoring FindRemoteThumbs
  478. 21:25:07 T:3532 M:1066983424   DEBUG: Thread 3532 terminating
  479. 21:25:07 T:2424 M:1066983424   DEBUG: CGUIMediaWindow::GetDirectory (videodb://1/2/)
  480. 21:25:07 T:2424 M:1066983424   DEBUG:   ParentPath = [videodb://1/2/]
  481. 21:25:07 T:3492 M:1066983424   DEBUG: CDatabase: Connecting to database MyVideos34.db at C:\Users\HTPC\AppData\Roaming\XBMC\userdata\Database:
  482. 21:25:07 T:3492 M:1066921984   DEBUG: CVideoDatabase::GetSetsNav query: select sets.idSet,sets.strSet,count(1),count(files.playCount) from sets join setlinkmovie on sets.idSet=setlinkmovie.idSet join movie on setlinkmovie.idMovie=movie.idMovie join files on files.idFile=movie.idFile  group by sets.idSet
  483. 21:25:07 T:3492 M:1066909696   DEBUG: CVideoDatabase::GetMoviesByWhere query: select * from movieview where movieview.idMovie NOT in (select idMovie from setlinkmovie)
  484. 21:25:07 T:3492 M:1066586112   DEBUG: Time for actual SQL query = 22
  485. 21:25:07 T:2424 M:1067327488   DEBUG: ------ Window Init (DialogBusy.xml) ------
  486. 21:25:07 T:2424 M:1067319296   DEBUG: Alloc resources: 0.02ms (0.01 ms skin load)
  487. 21:25:07 T:3492 M:1065926656   DEBUG: Time to retrieve movies from dataset = 158
  488. 21:25:07 T:2424 M:1065742336   DEBUG: CDatabase: Connecting to database ViewModes at C:\Users\HTPC\AppData\Roaming\XBMC\userdata\Database:
  489. 21:25:07 T:2424 M:1065639936   DEBUG: CDatabase: Connecting to database ViewModes at C:\Users\HTPC\AppData\Roaming\XBMC\userdata\Database:
  490. 21:25:07 T:2424 M:1065541632   DEBUG: CDatabase: Connecting to database ViewModes at C:\Users\HTPC\AppData\Roaming\XBMC\userdata\Database:
  491. 21:25:07 T:2424 M:1065504768   DEBUG: Saving fileitems [videodb://1/2/]
  492. 21:25:07 T:2424 M:1065222144   DEBUG:   -- items: 63, sort method: 23, ascending: true
  493. 21:25:07 T:2424 M:1065218048   DEBUG: CDatabase: Connecting to database MyVideos34.db at C:\Users\HTPC\AppData\Roaming\XBMC\userdata\Database:
  494. 21:25:07 T:3572 M:1065082880   DEBUG: thread start, auto delete: 0
  495. 21:25:07 T:2424 M:1069932544   DEBUG: ------ Window Deinit (DialogBusy.xml) ------
  496. 21:25:07 T:3548 M:1068486656   DEBUG: CImageLoader::DoWork - took 1016 ms to load special://masterprofile/Thumbnails/Video/Fanart/9091e1df.tbn
  497. 21:25:07 T:3572 M:1072128000   DEBUG: Thread 3572 terminating
  498. 21:25:07 T:2424 M:1070419968   DEBUG: SDLKeyboard: scancode: 0, sym: 99, unicode: 99, modifier: 0
  499. 21:25:07 T:2424 M:1070419968   DEBUG: CApplication::OnKey: 61507 pressed, action is ContextMenu
  500. 21:25:07 T:2424 M:1070411776   DEBUG: CPlayerCoreFactory::GetPlayers(smb://SERVER-PC/Movie Archive 1/300.2006.BluRay.1080p.Remux.DTS.WVC-1.dxva-HDME/300.2006.BluRay.1080p.Remux.DTS.WVC-1.dxva-HDME.mkv)
  501. 21:25:07 T:2424 M:1070407680   DEBUG: CPlayerSelectionRule::GetPlayers: considering rule: system rules
  502. 21:25:07 T:2424 M:1070407680   DEBUG: CPlayerSelectionRule::GetPlayers: matches rule: system rules
  503. 21:25:07 T:2424 M:1070407680   DEBUG: CPlayerSelectionRule::GetPlayers: considering rule: rtv
  504. 21:25:07 T:2424 M:1070407680   DEBUG: CPlayerSelectionRule::GetPlayers: considering rule: hdhomerun/myth/rtmp/mms/udp
  505. 21:25:07 T:2424 M:1070407680   DEBUG: CPlayerSelectionRule::GetPlayers: considering rule: lastfm/shout
  506. 21:25:07 T:2424 M:1070407680   DEBUG: CPlayerSelectionRule::GetPlayers: considering rule: rtsp
  507. 21:25:07 T:2424 M:1070407680   DEBUG: CPlayerSelectionRule::GetPlayers: considering rule: streams
  508. 21:25:07 T:2424 M:1070407680   DEBUG: CPlayerSelectionRule::GetPlayers: considering rule: dvd
  509. 21:25:07 T:2424 M:1070407680   DEBUG: CPlayerSelectionRule::GetPlayers: considering rule: dvdfile
  510. 21:25:07 T:2424 M:1070407680   DEBUG: CPlayerSelectionRule::GetPlayers: considering rule: dvdimage
  511. 21:25:07 T:2424 M:1070407680   DEBUG: CPlayerSelectionRule::GetPlayers: considering rule: sdp/asf
  512. 21:25:07 T:2424 M:1070407680   DEBUG: CPlayerSelectionRule::GetPlayers: considering rule: nsv
  513. 21:25:07 T:2424 M:1070399488   DEBUG: CPlayerCoreFactory::GetPlayers: matched 0 rules with players
  514. 21:25:07 T:2424 M:1070383104   DEBUG: CPlayerCoreFactory::GetPlayers: adding videodefaultplayer (1)
  515. 21:25:07 T:2424 M:1070383104   DEBUG: CPlayerCoreFactory::GetPlayers: for video=1, audio=0
  516. 21:25:07 T:2424 M:1070383104   DEBUG: CPlayerCoreFactory::GetPlayers: for video=1, audio=1
  517. 21:25:07 T:2424 M:1070383104   DEBUG: CPlayerCoreFactory::GetPlayers: adding player: DVDPlayer (1)
  518. 21:25:07 T:2424 M:1070383104   DEBUG: CPlayerCoreFactory::GetPlayers: added 1 players
  519. 21:25:07 T:2424 M:1070321664   DEBUG: CFavourites::Load - no system favourites found, skipping
  520. 21:25:07 T:2424 M:1070272512    INFO: Loading skin file: DialogContextMenu.xml
  521. 21:25:07 T:2424 M:1070260224   DEBUG: Load DialogContextMenu.xml: 4.58ms
  522. 21:25:07 T:2424 M:1070260224   DEBUG: ------ Window Init (DialogContextMenu.xml) ------
  523. 21:25:07 T:2424 M:1070247936   DEBUG: Alloc resources: 0.89ms (0.01 ms skin load)
  524. 21:25:08 T:3512 M:1067802624   DEBUG: CImageLoader::DoWork - took 935 ms to load special://masterprofile/Thumbnails/Video/Fanart/9091e1df.tbn
  525. 21:25:08 T:2424 M:1066463232   DEBUG: SDLKeyboard: scancode: 80, sym: 274, unicode: 0, modifier: 0
  526. 21:25:08 T:2424 M:1066463232   DEBUG: CApplication::OnKey: 61480 pressed, action is Down
  527. 21:25:08 T:2424 M:1067016192   DEBUG: SDLKeyboard: scancode: 80, sym: 274, unicode: 0, modifier: 0
  528. 21:25:08 T:2424 M:1067016192   DEBUG: CApplication::OnKey: 61480 pressed, action is Down
  529. 21:25:09 T:2424 M:1066909696   DEBUG: SDLKeyboard: scancode: 28, sym: 13, unicode: 13, modifier: 0
  530. 21:25:09 T:2424 M:1066909696   DEBUG: CApplication::OnKey: 61453 pressed, action is Select
  531. 21:25:09 T:2424 M:1066930176   DEBUG: ------ Window Deinit (DialogContextMenu.xml) ------
  532. 21:25:09 T:2424 M:1066921984   DEBUG: No NFO file found. Using title search for 'smb://SERVER-PC/Movie Archive 1/300.2006.BluRay.1080p.Remux.DTS.WVC-1.dxva-HDME/300.2006.BluRay.1080p.Remux.DTS.WVC-1.dxva-HDME.mkv'
  533. 21:25:09 T:2424 M:1066921984    INFO: Loading skin file: DialogProgress.xml
  534. 21:25:09 T:2424 M:1066917888   DEBUG: Load DialogProgress.xml: 5.63ms
  535. 21:25:09 T:2424 M:1066917888   DEBUG: ------ Window Init (DialogProgress.xml) ------
  536. 21:25:09 T:2424 M:1066917888   DEBUG: Alloc resources: 0.11ms (0.01 ms skin load)
  537. 21:25:09 T:2424 M:1066913792    INFO: Loading skin file: DialogOK.xml
  538. 21:25:09 T:2424 M:1066909696   DEBUG: Load DialogOK.xml: 4.12ms
  539. 21:25:09 T:2424 M:1066909696   DEBUG: ------ Window Init (DialogOK.xml) ------
  540. 21:25:09 T:2424 M:1066909696   DEBUG: Alloc resources: 0.08ms (0.01 ms skin load)
  541. 21:25:11 T:2424 M:1067020288   DEBUG: SDLKeyboard: scancode: 28, sym: 13, unicode: 13, modifier: 0
  542. 21:25:11 T:2424 M:1067020288   DEBUG: CApplication::OnKey: 61453 pressed, action is Select
  543. 21:25:11 T:2424 M:1067233280   DEBUG: ------ Window Deinit (DialogOK.xml) ------
  544. 21:25:11 T:2424 M:1067216896   DEBUG: ------ Window Deinit (DialogProgress.xml) ------
  545. 21:25:12 T:2424 M:1067339776   DEBUG: SDLKeyboard: scancode: 0, sym: 115, unicode: 115, modifier: 0
  546. 21:25:12 T:2424 M:1067339776   DEBUG: CApplication::OnKey: 61523 pressed, action is ActivateWindow(shutdownmenu)
  547. 21:25:12 T:2424 M:1067339776   DEBUG: Activating window ID: 10111
  548. 21:25:12 T:2424 M:1067339776   DEBUG: Checking if window ID 10111 is locked.
  549. 21:25:12 T:2424 M:1067339776   DEBUG: ------ Window Init (DialogButtonMenu.xml) ------
  550. 21:25:12 T:2424 M:1067339776    INFO: Loading skin file: DialogButtonMenu.xml
  551. 21:25:12 T:2424 M:1067327488   DEBUG: Load DialogButtonMenu.xml: 13.96ms
  552. 21:25:12 T:2424 M:1067020288   DEBUG: Alloc resources: 24.33ms (14.14 ms skin load)
  553. 21:25:13 T:2424 M:1066364928   DEBUG: SDLKeyboard: scancode: 75, sym: 276, unicode: 0, modifier: 0
  554. 21:25:13 T:2424 M:1066364928   DEBUG: CApplication::OnKey: 61477 pressed, action is Left
  555. 21:25:13 T:2424 M:1066467328   DEBUG: SDLKeyboard: scancode: 28, sym: 13, unicode: 13, modifier: 0
  556. 21:25:13 T:2424 M:1066467328   DEBUG: CApplication::OnKey: 61453 pressed, action is Select
  557. 21:25:13 T:2424 M:1066467328   DEBUG: CApplication::ExecuteXBMCAction : Translating XBMC.Quit()
  558. 21:25:13 T:2424 M:1066467328   DEBUG: CApplication::ExecuteXBMCAction : To XBMC.Quit()
  559. 21:25:13 T:3548 M:1066467328   DEBUG: Thread 3548 terminating (autodelete)
  560. 21:25:13 T:3492 M:1066590208   DEBUG: Thread 3492 terminating (autodelete)
  561. 21:25:13 T:3512 M:1066688512   DEBUG: Thread 3512 terminating (autodelete)
  562. 21:25:13 T:2424 M:1066528768   DEBUG: CAnnouncementManager - Announcement: ApplicationStop from xbmc
  563. 21:25:13 T:2424 M:1066557440  NOTICE: Storing total System Uptime
  564. 21:25:13 T:2424 M:1066639360  NOTICE: Saving settings
  565. 21:25:13 T:2424 M:1066622976  NOTICE: stop all
  566. 21:25:13 T:2424 M:1066622976   DEBUG: CNetwork::NetworkMessage - Signaling network services to stop
  567. 21:25:13 T:2424 M:1066622976  NOTICE: ES: Stopping event server
  568. 21:25:13 T:2424 M:1066622976   DEBUG: CNetwork::NetworkMessage - Waiting for network services to stop
  569. 21:25:13 T:2424 M:1066622976   DEBUG: CLastfmScrobbler: Journal with 0 entries saved to special://masterprofile/LastfmScrobbler.xml
  570. 21:25:13 T:2424 M:1066622976   DEBUG: CLibrefmScrobbler: Journal with 0 entries saved to special://masterprofile/LibrefmScrobbler.xml
  571. 21:25:13 T:3480 M:1066688512   DEBUG: Thread 3480 terminating
  572. 21:25:13 T:3504 M:1066717184  NOTICE: ES: UDP Event server stopped
  573. 21:25:13 T:3504 M:1066717184   DEBUG: Thread 3504 terminating
  574. 21:25:13 T:2424 M:1066745856  NOTICE: stop sap announcement listener
  575. 21:25:13 T:2424 M:1066745856  NOTICE: clean cached files!
  576. 21:25:13 T:2424 M:1066741760  NOTICE: unload skin
  577. 21:25:13 T:2424 M:1066737664   DEBUG: ------ Window Deinit (MyVideoNav.xml) ------
  578. 21:25:13 T:2424 M:1066737664   DEBUG: ------ Window Deinit (Pointer.xml) ------
  579. 21:25:13 T:2424 M:1066737664   DEBUG: ------ Window Deinit (DialogMuteBug.xml) ------
  580. 21:25:13 T:2424 M:1079017472    INFO: CrystalHD: device closed
  581. 21:25:13 T:2424 M:1079017472  NOTICE: stop python
  582. 21:25:13 T:2424 M:1079017472  NOTICE: stopped
  583. 21:25:13 T:2424 M:1079017472  NOTICE: destroy
  584. 21:25:13 T:2424 M:1081024512  NOTICE: unload sections
  585. 21:25:13 T:2424 M:1081085952   DEBUG: SECTION:UnloadAll(DLL: special://xbmc/system/ImageLib.dll)
  586. 21:25:13 T:2424 M:1081352192   DEBUG: Win32DllLoader::Unload ImageLib.dll
  587. 21:25:13 T:2424 M:1081806848   DEBUG: SECTION:UnloadAll(DLL: special://xbmc/system/libcurl.dll)
  588. 21:25:13 T:2424 M:1082040320   DEBUG: Win32DllLoader::Unload libcurl.dll
  589. 21:25:13 T:2424 M:1081806848   DEBUG: FreeLibrary(libidn-11.dll) -> 05C5C868
  590. 21:25:13 T:2424 M:1081806848   DEBUG: Win32DllLoader::Unload libidn-11.dll
  591. 21:25:13 T:2424 M:1081806848   DEBUG: FreeLibrary(libeay32.dll) -> 05C5C818
  592. 21:25:13 T:2424 M:1082220544   DEBUG: FreeLibrary(libssl32.dll) -> 05C5C7C8
  593. 21:25:13 T:2424 M:1081806848   DEBUG: Win32DllLoader::Unload libssl32.dll
  594. 21:25:13 T:2424 M:1081806848   DEBUG: FreeLibrary(libeay32.dll) -> 05C5C818
  595. 21:25:13 T:2424 M:1081806848   DEBUG: Win32DllLoader::Unload libeay32.dll
  596. 21:25:13 T:2424 M:1084792832   DEBUG: CLastfmScrobbler: Journal with 0 entries saved to special://masterprofile/LastfmScrobbler.xml
  597. 21:25:13 T:2424 M:1084792832   DEBUG: CLibrefmScrobbler: Journal with 0 entries saved to special://masterprofile/LibrefmScrobbler.xml
clone this paste RAW Paste Data